<?xml version='1.0' encoding='UTF-8'?><gpx version="1.1" creator="JPX - https://github.com/jenetics/jpx" xmlns="http://www.topografix.com/GPX/1/1"><trk><trkseg><trkpt lat="42.3021849" lon="12.7209524"><ele>639.0000000000001</ele><time>2026-04-25T09:22:48.252Z</time></trkpt><trkpt lat="42.3021203" lon="12.7209584"><ele>639.0</ele><time>2026-04-25T09:22:54.291Z</time></trkpt><trkpt lat="42.3020561" lon="12.7209875"><ele>639.0</ele><time>2026-04-25T09:23:01.291Z</time></trkpt><trkpt lat="42.301987" lon="12.7210208"><ele>639.0</ele><time>2026-04-25T09:23:07.29Z</time></trkpt><trkpt lat="42.3019176" lon="12.7210164"><ele>639.0</ele><time>2026-04-25T09:23:13.209Z</time></trkpt><trkpt lat="42.3018549" lon="12.7209939"><ele>639.0000000000001</ele><time>2026-04-25T09:23:19.291Z</time></trkpt><trkpt lat="42.3017915" lon="12.7209924"><ele>639.0</ele><time>2026-04-25T09:23:25.291Z</time></trkpt><trkpt lat="42.3017227" lon="12.7209903"><ele>639.0000000000001</ele><time>2026-04-25T09:23:31.29Z</time></trkpt><trkpt lat="42.3016542" lon="12.7209805"><ele>639.0</ele><time>2026-04-25T09:23:36.291Z</time></trkpt><trkpt lat="42.3015842" lon="12.7209634"><ele>639.0</ele><time>2026-04-25T09:23:43.29Z</time></trkpt><trkpt lat="42.301521" lon="12.7209578"><ele>639.0</ele><time>2026-04-25T09:23:51.291Z</time></trkpt><trkpt lat="42.3014574" lon="12.7209612"><ele>639.0</ele><time>2026-04-25T09:24:01.294Z</time></trkpt><trkpt lat="42.3013915" lon="12.720978"><ele>639.0000000000001</ele><time>2026-04-25T09:24:08.29Z</time></trkpt><trkpt lat="42.3013192" lon="12.7209709"><ele>639.0</ele><time>2026-04-25T09:24:14.29Z</time></trkpt><trkpt lat="42.3012477" lon="12.7209589"><ele>638.8571428571429</ele><time>2026-04-25T09:24:29.29Z</time></trkpt><trkpt lat="42.3011801" lon="12.7209624"><ele>638.7142857142858</ele><time>2026-04-25T09:24:33.29Z</time></trkpt><trkpt lat="42.3011109" lon="12.7209733"><ele>638.5714285714287</ele><time>2026-04-25T09:24:38.289Z</time></trkpt><trkpt lat="42.3010405" lon="12.7209782"><ele>638.4285714285714</ele><time>2026-04-25T09:24:44.289Z</time></trkpt><trkpt lat="42.3009722" lon="12.7209834"><ele>638.2857142857142</ele><time>2026-04-25T09:24:49.289Z</time></trkpt><trkpt lat="42.3008988" lon="12.7210015"><ele>638.1428571428572</ele><time>2026-04-25T09:24:55.301Z</time></trkpt><trkpt lat="42.3008362" lon="12.7210189"><ele>638.0</ele><time>2026-04-25T09:25:00.289Z</time></trkpt><trkpt lat="42.3007691" lon="12.7210297"><ele>638.0</ele><time>2026-04-25T09:25:05.289Z</time></trkpt><trkpt lat="42.300701" lon="12.7210422"><ele>638.0</ele><time>2026-04-25T09:25:10.289Z</time></trkpt><trkpt lat="42.3006296" lon="12.7210582"><ele>638.0</ele><time>2026-04-25T09:25:15.289Z</time></trkpt><trkpt lat="42.300561" lon="12.7210675"><ele>638.0</ele><time>2026-04-25T09:25:20.289Z</time></trkpt><trkpt lat="42.3004993" lon="12.7210917"><ele>638.0</ele><time>2026-04-25T09:25:25.191Z</time></trkpt><trkpt lat="42.3004344" lon="12.7211249"><ele>638.0</ele><time>2026-04-25T09:25:30.289Z</time></trkpt><trkpt lat="42.3003688" lon="12.7211289"><ele>638.0</ele><time>2026-04-25T09:25:35.29Z</time></trkpt><trkpt lat="42.3003129" lon="12.7211689"><ele>640.5714285714286</ele><time>2026-04-25T09:25:39.289Z</time></trkpt><trkpt lat="42.30025" lon="12.7212225"><ele>643.1428571428571</ele><time>2026-04-25T09:25:45.294Z</time></trkpt><trkpt lat="42.3001998" lon="12.7212931"><ele>645.7142857142857</ele><time>2026-04-25T09:25:51.289Z</time></trkpt><trkpt lat="42.3001319" lon="12.7213387"><ele>648.2857142857142</ele><time>2026-04-25T09:25:57.289Z</time></trkpt><trkpt lat="42.3000565" lon="12.7213533"><ele>650.8571428571429</ele><time>2026-04-25T09:26:02.289Z</time></trkpt><trkpt lat="42.2999799" lon="12.7213532"><ele>653.4285714285713</ele><time>2026-04-25T09:26:07.271Z</time></trkpt><trkpt lat="42.2999162" lon="12.7213264"><ele>656.0</ele><time>2026-04-25T09:26:12.254Z</time></trkpt><trkpt lat="42.2998692" lon="12.7212552"><ele>655.9999999999999</ele><time>2026-04-25T09:26:17.289Z</time></trkpt><trkpt lat="42.2998373" lon="12.7211693"><ele>656.0</ele><time>2026-04-25T09:26:23.289Z</time></trkpt><trkpt lat="42.2998554" lon="12.7210811"><ele>656.0</ele><time>2026-04-25T09:26:30.289Z</time></trkpt><trkpt lat="42.2998534" lon="12.7209951"><ele>656.0</ele><time>2026-04-25T09:26:36.291Z</time></trkpt><trkpt lat="42.2998402" lon="12.7209099"><ele>656.0</ele><time>2026-04-25T09:26:41.311Z</time></trkpt><trkpt lat="42.2998228" lon="12.7208183"><ele>655.9999999999999</ele><time>2026-04-25T09:26:46.289Z</time></trkpt><trkpt lat="42.2997981" lon="12.7207361"><ele>656.0</ele><time>2026-04-25T09:26:52.289Z</time></trkpt><trkpt lat="42.2997471" lon="12.7206653"><ele>656.5714285714286</ele><time>2026-04-25T09:26:58.289Z</time></trkpt><trkpt lat="42.2996821" lon="12.7206409"><ele>657.1428571428571</ele><time>2026-04-25T09:27:03.296Z</time></trkpt><trkpt lat="42.2996185" lon="12.7206261"><ele>657.7142857142858</ele><time>2026-04-25T09:27:08.289Z</time></trkpt><trkpt lat="42.299549" lon="12.7205985"><ele>658.2857142857142</ele><time>2026-04-25T09:27:14.288Z</time></trkpt><trkpt lat="42.2994788" lon="12.720569"><ele>658.8571428571429</ele><time>2026-04-25T09:27:20.204Z</time></trkpt><trkpt lat="42.2994158" lon="12.7205403"><ele>659.4285714285714</ele><time>2026-04-25T09:27:25.288Z</time></trkpt><trkpt lat="42.2993516" lon="12.720517"><ele>660.0</ele><time>2026-04-25T09:27:30.288Z</time></trkpt><trkpt lat="42.2992878" lon="12.7204831"><ele>660.0000000000001</ele><time>2026-04-25T09:27:35.288Z</time></trkpt><trkpt lat="42.2992217" lon="12.7204488"><ele>660.0</ele><time>2026-04-25T09:27:40.288Z</time></trkpt><trkpt lat="42.2991582" lon="12.7204152"><ele>660.0</ele><time>2026-04-25T09:27:45.288Z</time></trkpt><trkpt lat="42.2990907" lon="12.720389"><ele>660.0</ele><time>2026-04-25T09:27:50.29Z</time></trkpt><trkpt lat="42.299027" lon="12.7203881"><ele>660.0</ele><time>2026-04-25T09:27:55.295Z</time></trkpt><trkpt lat="42.2989626" lon="12.7204105"><ele>660.0000000000001</ele><time>2026-04-25T09:28:01.192Z</time></trkpt><trkpt lat="42.2988944" lon="12.720427"><ele>660.0</ele><time>2026-04-25T09:28:06.233Z</time></trkpt><trkpt lat="42.2988312" lon="12.7204194"><ele>660.4285714285714</ele><time>2026-04-25T09:28:22.289Z</time></trkpt><trkpt lat="42.298762" lon="12.7204138"><ele>660.8571428571429</ele><time>2026-04-25T09:28:26.288Z</time></trkpt><trkpt lat="42.2986963" lon="12.7204129"><ele>661.2857142857142</ele><time>2026-04-25T09:28:30.288Z</time></trkpt><trkpt lat="42.2986225" lon="12.7204054"><ele>661.7142857142858</ele><time>2026-04-25T09:28:35.288Z</time></trkpt><trkpt lat="42.2985549" lon="12.7204102"><ele>662.1428571428571</ele><time>2026-04-25T09:28:40.289Z</time></trkpt><trkpt lat="42.2984892" lon="12.7204244"><ele>662.5714285714286</ele><time>2026-04-25T09:28:45.288Z</time></trkpt><trkpt lat="42.2984186" lon="12.7204445"><ele>663.0</ele><time>2026-04-25T09:28:51.288Z</time></trkpt><trkpt lat="42.2983456" lon="12.7204487"><ele>662.9999999999999</ele><time>2026-04-25T09:28:56.205Z</time></trkpt><trkpt lat="42.2982797" lon="12.720428"><ele>663.0</ele><time>2026-04-25T09:29:00.289Z</time></trkpt><trkpt lat="42.2982118" lon="12.7203752"><ele>663.0</ele><time>2026-04-25T09:29:05.288Z</time></trkpt><trkpt lat="42.2981561" lon="12.7203093"><ele>663.0</ele><time>2026-04-25T09:29:10.289Z</time></trkpt><trkpt lat="42.2980938" lon="12.7202657"><ele>663.0</ele><time>2026-04-25T09:29:15.288Z</time></trkpt><trkpt lat="42.2980285" lon="12.7202363"><ele>662.9999999999999</ele><time>2026-04-25T09:29:20.288Z</time></trkpt><trkpt lat="42.2979593" lon="12.7202259"><ele>663.0</ele><time>2026-04-25T09:29:25.288Z</time></trkpt><trkpt lat="42.2978996" lon="12.7202722"><ele>661.2857142857142</ele><time>2026-04-25T09:29:30.288Z</time></trkpt><trkpt lat="42.2978488" lon="12.7203389"><ele>659.5714285714286</ele><time>2026-04-25T09:29:35.288Z</time></trkpt><trkpt lat="42.2978012" lon="12.7204125"><ele>657.8571428571429</ele><time>2026-04-25T09:29:40.287Z</time></trkpt><trkpt lat="42.2977466" lon="12.7204776"><ele>656.1428571428571</ele><time>2026-04-25T09:29:45.287Z</time></trkpt><trkpt lat="42.2976877" lon="12.7205347"><ele>654.4285714285714</ele><time>2026-04-25T09:29:50.193Z</time></trkpt><trkpt lat="42.2976292" lon="12.7205695"><ele>652.7142857142857</ele><time>2026-04-25T09:29:54.287Z</time></trkpt><trkpt lat="42.2975615" lon="12.720611"><ele>651.0</ele><time>2026-04-25T09:29:59.306Z</time></trkpt><trkpt lat="42.2975001" lon="12.7206579"><ele>651.0</ele><time>2026-04-25T09:30:04.293Z</time></trkpt><trkpt lat="42.2974582" lon="12.7207329"><ele>651.0</ele><time>2026-04-25T09:30:09.288Z</time></trkpt><trkpt lat="42.2974412" lon="12.720815"><ele>651.0</ele><time>2026-04-25T09:30:14.287Z</time></trkpt><trkpt lat="42.297424" lon="12.7209119"><ele>651.0</ele><time>2026-04-25T09:30:20.308Z</time></trkpt><trkpt lat="42.2974094" lon="12.7209995"><ele>651.0</ele><time>2026-04-25T09:30:25.288Z</time></trkpt><trkpt lat="42.2973792" lon="12.7210857"><ele>651.0</ele><time>2026-04-25T09:30:30.293Z</time></trkpt><trkpt lat="42.2973046" lon="12.7211119"><ele>651.0</ele><time>2026-04-25T09:30:35.287Z</time></trkpt><trkpt lat="42.2972309" lon="12.7210827"><ele>651.8571428571429</ele><time>2026-04-25T09:30:40.266Z</time></trkpt><trkpt lat="42.2971574" lon="12.7210719"><ele>652.7142857142858</ele><time>2026-04-25T09:30:45.287Z</time></trkpt><trkpt lat="42.2970848" lon="12.7210709"><ele>653.5714285714286</ele><time>2026-04-25T09:30:50.324Z</time></trkpt><trkpt lat="42.2970145" lon="12.7210842"><ele>654.4285714285714</ele><time>2026-04-25T09:30:55.29Z</time></trkpt><trkpt lat="42.2969456" lon="12.7211087"><ele>655.2857142857143</ele><time>2026-04-25T09:31:00.31Z</time></trkpt><trkpt lat="42.2968789" lon="12.7211473"><ele>656.1428571428571</ele><time>2026-04-25T09:31:05.288Z</time></trkpt><trkpt lat="42.2968199" lon="12.7211958"><ele>657.0</ele><time>2026-04-25T09:31:10.287Z</time></trkpt><trkpt lat="42.2967629" lon="12.7212507"><ele>657.0</ele><time>2026-04-25T09:31:15.249Z</time></trkpt><trkpt lat="42.2967077" lon="12.7213011"><ele>657.0</ele><time>2026-04-25T09:31:20.287Z</time></trkpt><trkpt lat="42.2966554" lon="12.7213578"><ele>657.0</ele><time>2026-04-25T09:31:25.305Z</time></trkpt><trkpt lat="42.2966066" lon="12.7214147"><ele>657.0</ele><time>2026-04-25T09:31:30.288Z</time></trkpt><trkpt lat="42.2965564" lon="12.7214924"><ele>657.0</ele><time>2026-04-25T09:31:36.287Z</time></trkpt><trkpt lat="42.2965084" lon="12.7215534"><ele>657.0</ele><time>2026-04-25T09:31:41.271Z</time></trkpt><trkpt lat="42.2964435" lon="12.7215791"><ele>657.0</ele><time>2026-04-25T09:31:46.287Z</time></trkpt><trkpt lat="42.29639" lon="12.7215179"><ele>657.0</ele><time>2026-04-25T09:31:51.288Z</time></trkpt><trkpt lat="42.2963562" lon="12.7214445"><ele>657.0</ele><time>2026-04-25T09:31:57.287Z</time></trkpt><trkpt lat="42.2963217" lon="12.7213642"><ele>657.0</ele><time>2026-04-25T09:32:03.206Z</time></trkpt><trkpt lat="42.2962713" lon="12.7212994"><ele>657.0</ele><time>2026-04-25T09:32:09.287Z</time></trkpt><trkpt lat="42.2962199" lon="12.7212488"><ele>657.0</ele><time>2026-04-25T09:32:14.286Z</time></trkpt><trkpt lat="42.296158" lon="12.7211984"><ele>657.0</ele><time>2026-04-25T09:32:20.254Z</time></trkpt><trkpt lat="42.2960975" lon="12.7211577"><ele>657.0</ele><time>2026-04-25T09:32:26.287Z</time></trkpt><trkpt lat="42.2960356" lon="12.7211292"><ele>657.0</ele><time>2026-04-25T09:32:32.286Z</time></trkpt><trkpt lat="42.2959667" lon="12.7211134"><ele>657.0</ele><time>2026-04-25T09:32:38.289Z</time></trkpt><trkpt lat="42.2959001" lon="12.7211228"><ele>657.0</ele><time>2026-04-25T09:32:44.248Z</time></trkpt><trkpt lat="42.2958327" lon="12.7211692"><ele>657.0</ele><time>2026-04-25T09:32:50.287Z</time></trkpt><trkpt lat="42.2957726" lon="12.7212243"><ele>657.0</ele><time>2026-04-25T09:32:55.286Z</time></trkpt><trkpt lat="42.2957214" lon="12.7212842"><ele>657.0</ele><time>2026-04-25T09:33:00.286Z</time></trkpt><trkpt lat="42.2956773" lon="12.7213519"><ele>657.0</ele><time>2026-04-25T09:33:05.294Z</time></trkpt><trkpt lat="42.2956302" lon="12.7214165"><ele>656.1428571428571</ele><time>2026-04-25T09:33:10.287Z</time></trkpt><trkpt lat="42.2955811" lon="12.7214841"><ele>655.2857142857143</ele><time>2026-04-25T09:33:15.287Z</time></trkpt><trkpt lat="42.2955263" lon="12.7215428"><ele>654.4285714285714</ele><time>2026-04-25T09:33:20.311Z</time></trkpt><trkpt lat="42.2954625" lon="12.721564"><ele>653.5714285714286</ele><time>2026-04-25T09:33:25.189Z</time></trkpt><trkpt lat="42.2954037" lon="12.721602"><ele>652.7142857142858</ele><time>2026-04-25T09:33:30.291Z</time></trkpt><trkpt lat="42.2953409" lon="12.7216303"><ele>651.8571428571429</ele><time>2026-04-25T09:33:35.331Z</time></trkpt><trkpt lat="42.2952753" lon="12.7216731"><ele>651.0</ele><time>2026-04-25T09:33:41.286Z</time></trkpt><trkpt lat="42.2952187" lon="12.7217128"><ele>651.0</ele><time>2026-04-25T09:33:46.286Z</time></trkpt><trkpt lat="42.2951635" lon="12.721778"><ele>651.0</ele><time>2026-04-25T09:33:52.287Z</time></trkpt><trkpt lat="42.2951328" lon="12.721855"><ele>651.0</ele><time>2026-04-25T09:33:57.296Z</time></trkpt><trkpt lat="42.2950956" lon="12.7219282"><ele>651.0</ele><time>2026-04-25T09:34:03.286Z</time></trkpt><trkpt lat="42.2950305" lon="12.7219765"><ele>651.0</ele><time>2026-04-25T09:34:09.287Z</time></trkpt><trkpt lat="42.294967" lon="12.7219794"><ele>651.0</ele><time>2026-04-25T09:34:14.286Z</time></trkpt><trkpt lat="42.2948969" lon="12.7219925"><ele>651.0</ele><time>2026-04-25T09:34:20.287Z</time></trkpt><trkpt lat="42.2948331" lon="12.7220128"><ele>653.4285714285714</ele><time>2026-04-25T09:34:26.285Z</time></trkpt><trkpt lat="42.294763" lon="12.7220222"><ele>655.8571428571429</ele><time>2026-04-25T09:34:33.285Z</time></trkpt><trkpt lat="42.294697" lon="12.7220306"><ele>658.2857142857142</ele><time>2026-04-25T09:34:39.285Z</time></trkpt><trkpt lat="42.2946225" lon="12.7220547"><ele>660.7142857142858</ele><time>2026-04-25T09:34:45.285Z</time></trkpt><trkpt lat="42.2945536" lon="12.7220679"><ele>663.1428571428571</ele><time>2026-04-25T09:34:50.305Z</time></trkpt><trkpt lat="42.2944818" lon="12.7220618"><ele>665.5714285714286</ele><time>2026-04-25T09:34:57.285Z</time></trkpt><trkpt lat="42.294408" lon="12.7220459"><ele>668.0</ele><time>2026-04-25T09:35:02.286Z</time></trkpt><trkpt lat="42.2943339" lon="12.7220325"><ele>668.1428571428571</ele><time>2026-04-25T09:35:07.325Z</time></trkpt><trkpt lat="42.2942691" lon="12.7220024"><ele>668.2857142857143</ele><time>2026-04-25T09:35:12.29Z</time></trkpt><trkpt lat="42.2941967" lon="12.7219728"><ele>668.4285714285714</ele><time>2026-04-25T09:35:24.285Z</time></trkpt><trkpt lat="42.2941329" lon="12.7219501"><ele>668.5714285714286</ele><time>2026-04-25T09:35:29.286Z</time></trkpt><trkpt lat="42.2940715" lon="12.7219281"><ele>668.7142857142857</ele><time>2026-04-25T09:35:34.285Z</time></trkpt><trkpt lat="42.2939959" lon="12.7219398"><ele>668.8571428571429</ele><time>2026-04-25T09:35:40.301Z</time></trkpt><trkpt lat="42.2939264" lon="12.7219035"><ele>669.0</ele><time>2026-04-25T09:35:45.285Z</time></trkpt><trkpt lat="42.29386" lon="12.7218765"><ele>658.0</ele><time>2026-04-25T09:35:50.286Z</time></trkpt><trkpt lat="42.2937952" lon="12.7218748"><ele>658.0</ele><time>2026-04-25T09:35:55.285Z</time></trkpt></trkseg><trkseg><trkpt lat="42.2937039" lon="12.7219654"><ele>667.0000000000001</ele><time>2026-04-25T09:46:06.282Z</time></trkpt><trkpt lat="42.2936544" lon="12.722025"><ele>667.0</ele><time>2026-04-25T09:46:13.28Z</time></trkpt><trkpt lat="42.2935996" lon="12.7220742"><ele>667.0</ele><time>2026-04-25T09:46:20.28Z</time></trkpt><trkpt lat="42.2935416" lon="12.7221337"><ele>667.0</ele><time>2026-04-25T09:46:26.28Z</time></trkpt><trkpt lat="42.2934748" lon="12.7221816"><ele>667.0</ele><time>2026-04-25T09:46:31.281Z</time></trkpt><trkpt lat="42.2934273" lon="12.7222383"><ele>667.0000000000001</ele><time>2026-04-25T09:46:35.28Z</time></trkpt><trkpt lat="42.2933766" lon="12.7223125"><ele>667.0</ele><time>2026-04-25T09:46:40.28Z</time></trkpt><trkpt lat="42.2933311" lon="12.7223853"><ele>667.0000000000001</ele><time>2026-04-25T09:46:45.28Z</time></trkpt><trkpt lat="42.2933071" lon="12.7224644"><ele>667.0</ele><time>2026-04-25T09:46:51.28Z</time></trkpt><trkpt lat="42.2932719" lon="12.7225372"><ele>667.0</ele><time>2026-04-25T09:46:56.281Z</time></trkpt><trkpt lat="42.2932007" lon="12.722529"><ele>667.0</ele><time>2026-04-25T09:47:02.304Z</time></trkpt><trkpt lat="42.2931623" lon="12.7224548"><ele>667.0</ele><time>2026-04-25T09:47:06.28Z</time></trkpt><trkpt lat="42.2931164" lon="12.7223664"><ele>667.0000000000001</ele><time>2026-04-25T09:47:11.28Z</time></trkpt><trkpt lat="42.2930677" lon="12.72229"><ele>667.0</ele><time>2026-04-25T09:47:17.279Z</time></trkpt><trkpt lat="42.2930259" lon="12.7222161"><ele>665.8</ele><time>2026-04-25T09:47:22.283Z</time></trkpt><trkpt lat="42.2929944" lon="12.7221415"><ele>664.6</ele><time>2026-04-25T09:47:26.28Z</time></trkpt><trkpt lat="42.2929663" lon="12.7220632"><ele>663.4</ele><time>2026-04-25T09:47:31.279Z</time></trkpt><trkpt lat="42.2929633" lon="12.721974"><ele>662.1999999999999</ele><time>2026-04-25T09:47:36.28Z</time></trkpt><trkpt lat="42.2929662" lon="12.7218855"><ele>661.0</ele><time>2026-04-25T09:47:41.28Z</time></trkpt><trkpt lat="42.2927889" lon="12.7212909"><ele>661.0</ele><time>2026-04-25T09:48:19.279Z</time></trkpt><trkpt lat="42.2928137" lon="12.7211972"><ele>661.0</ele><time>2026-04-25T09:48:25.28Z</time></trkpt><trkpt lat="42.2928761" lon="12.7207794"><ele>661.0</ele><time>2026-04-25T09:52:02.277Z</time></trkpt><trkpt lat="42.2929057" lon="12.7205873"><ele>660.3333333333334</ele><time>2026-04-25T09:52:14.277Z</time></trkpt><trkpt lat="42.2928831" lon="12.7205027"><ele>659.6666666666667</ele><time>2026-04-25T09:52:19.287Z</time></trkpt><trkpt lat="42.2928621" lon="12.7204174"><ele>659.0</ele><time>2026-04-25T09:52:24.277Z</time></trkpt><trkpt lat="42.2928565" lon="12.7202385"><ele>658.3333333333334</ele><time>2026-04-25T09:52:36.277Z</time></trkpt><trkpt lat="42.2928495" lon="12.720143"><ele>657.6666666666666</ele><time>2026-04-25T09:52:43.218Z</time></trkpt><trkpt lat="42.2927948" lon="12.720092"><ele>657.0</ele><time>2026-04-25T09:52:49.855Z</time></trkpt><trkpt lat="42.2927997" lon="12.7199166"><ele>657.1666666666666</ele><time>2026-04-25T09:53:04.278Z</time></trkpt><trkpt lat="42.2928491" lon="12.719856"><ele>657.3333333333334</ele><time>2026-04-25T09:53:09.277Z</time></trkpt><trkpt lat="42.2929068" lon="12.7198186"><ele>657.5</ele><time>2026-04-25T09:53:15.277Z</time></trkpt><trkpt lat="42.293008" lon="12.7197049"><ele>657.6666666666667</ele><time>2026-04-25T09:53:28.276Z</time></trkpt><trkpt lat="42.2930582" lon="12.7196503"><ele>657.8333333333334</ele><time>2026-04-25T09:53:34.277Z</time></trkpt><trkpt lat="42.2931052" lon="12.7195929"><ele>658.0</ele><time>2026-04-25T09:53:41.276Z</time></trkpt><trkpt lat="42.2932111" lon="12.719493"><ele>658.0</ele><time>2026-04-25T09:53:54.279Z</time></trkpt><trkpt lat="42.2932653" lon="12.7194421"><ele>658.0</ele><time>2026-04-25T09:54:00.196Z</time></trkpt><trkpt lat="42.2933028" lon="12.7193574"><ele>658.0</ele><time>2026-04-25T09:54:06.276Z</time></trkpt><trkpt lat="42.2933808" lon="12.7192089"><ele>658.0</ele><time>2026-04-25T09:54:20.285Z</time></trkpt><trkpt lat="42.2934483" lon="12.7191737"><ele>658.0</ele><time>2026-04-25T09:54:28.276Z</time></trkpt><trkpt lat="42.2935526" lon="12.7190649"><ele>661.4</ele><time>2026-04-25T09:54:40.276Z</time></trkpt><trkpt lat="42.2936234" lon="12.719048"><ele>664.8</ele><time>2026-04-25T09:54:47.277Z</time></trkpt><trkpt lat="42.293684" lon="12.7190105"><ele>668.2</ele><time>2026-04-25T09:54:53.195Z</time></trkpt><trkpt lat="42.2937679" lon="12.7188895"><ele>671.6</ele><time>2026-04-25T09:55:43.275Z</time></trkpt><trkpt lat="42.2938015" lon="12.7187097"><ele>675.0</ele><time>2026-04-25T09:55:57.301Z</time></trkpt><trkpt lat="42.2938065" lon="12.718619"><ele>678.8</ele><time>2026-04-25T09:56:04.275Z</time></trkpt><trkpt lat="42.2938539" lon="12.7184501"><ele>682.6</ele><time>2026-04-25T09:56:15.275Z</time></trkpt><trkpt lat="42.2938599" lon="12.7183585"><ele>686.4000000000001</ele><time>2026-04-25T09:56:21.282Z</time></trkpt><trkpt lat="42.2938569" lon="12.7182702"><ele>690.2</ele><time>2026-04-25T09:56:27.275Z</time></trkpt><trkpt lat="42.2938167" lon="12.7180833"><ele>694.0</ele><time>2026-04-25T09:56:41.275Z</time></trkpt><trkpt lat="42.2938094" lon="12.7179886"><ele>694.0</ele><time>2026-04-25T09:56:46.283Z</time></trkpt><trkpt lat="42.2938241" lon="12.7179017"><ele>694.0</ele><time>2026-04-25T09:56:51.275Z</time></trkpt><trkpt lat="42.2937861" lon="12.7177211"><ele>694.0</ele><time>2026-04-25T09:57:02.275Z</time></trkpt><trkpt lat="42.2937684" lon="12.7176274"><ele>694.0</ele><time>2026-04-25T09:57:07.275Z</time></trkpt><trkpt lat="42.2937492" lon="12.7175449"><ele>694.0</ele><time>2026-04-25T09:57:24.274Z</time></trkpt><trkpt lat="42.2936614" lon="12.7173824"><ele>694.0</ele><time>2026-04-25T09:57:44.274Z</time></trkpt><trkpt lat="42.2936376" lon="12.7172895"><ele>694.0</ele><time>2026-04-25T09:57:49.274Z</time></trkpt><trkpt lat="42.293602" lon="12.7171002"><ele>694.0</ele><time>2026-04-25T09:58:01.275Z</time></trkpt><trkpt lat="42.2935653" lon="12.7170267"><ele>694.0</ele><time>2026-04-25T09:58:08.274Z</time></trkpt><trkpt lat="42.2935139" lon="12.7169647"><ele>694.0</ele><time>2026-04-25T09:58:14.274Z</time></trkpt><trkpt lat="42.2934575" lon="12.7167983"><ele>692.6666666666667</ele><time>2026-04-25T09:58:24.283Z</time></trkpt><trkpt lat="42.2934568" lon="12.7166982"><ele>691.3333333333334</ele><time>2026-04-25T09:58:30.275Z</time></trkpt><trkpt lat="42.2934527" lon="12.7166113"><ele>690.0</ele><time>2026-04-25T09:58:35.274Z</time></trkpt><trkpt lat="42.2933871" lon="12.7164462"><ele>688.6666666666666</ele><time>2026-04-25T09:58:47.276Z</time></trkpt><trkpt lat="42.293334" lon="12.7163973"><ele>687.3333333333333</ele><time>2026-04-25T09:58:54.274Z</time></trkpt><trkpt lat="42.2932923" lon="12.7163324"><ele>686.0</ele><time>2026-04-25T09:59:02.273Z</time></trkpt><trkpt lat="42.2931744" lon="12.716267"><ele>686.0</ele><time>2026-04-25T09:59:13.3Z</time></trkpt><trkpt lat="42.2931351" lon="12.7161924"><ele>686.0</ele><time>2026-04-25T09:59:20.274Z</time></trkpt><trkpt lat="42.2931089" lon="12.7161047"><ele>686.0</ele><time>2026-04-25T09:59:27.231Z</time></trkpt><trkpt lat="42.2930095" lon="12.7159708"><ele>686.0</ele><time>2026-04-25T09:59:41.238Z</time></trkpt><trkpt lat="42.2929645" lon="12.715893"><ele>686.0</ele><time>2026-04-25T09:59:47.273Z</time></trkpt><trkpt lat="42.2929296" lon="12.7158126"><ele>686.0</ele><time>2026-04-25T09:59:53.273Z</time></trkpt><trkpt lat="42.292857" lon="12.7156585"><ele>687.5</ele><time>2026-04-25T10:00:06.176Z</time></trkpt><trkpt lat="42.2928103" lon="12.7155957"><ele>689.0</ele><time>2026-04-25T10:00:12.273Z</time></trkpt><trkpt lat="42.2927623" lon="12.7155346"><ele>690.5</ele><time>2026-04-25T10:00:18.278Z</time></trkpt><trkpt lat="42.2927035" lon="12.7153721"><ele>692.0</ele><time>2026-04-25T10:00:31.273Z</time></trkpt><trkpt lat="42.2926638" lon="12.7152887"><ele>693.5</ele><time>2026-04-25T10:00:38.272Z</time></trkpt><trkpt lat="42.292636" lon="12.7151987"><ele>695.0</ele><time>2026-04-25T10:00:45.272Z</time></trkpt><trkpt lat="42.2925598" lon="12.715046"><ele>695.0</ele><time>2026-04-25T10:00:57.293Z</time></trkpt><trkpt lat="42.2925117" lon="12.7149783"><ele>695.0</ele><time>2026-04-25T10:01:05.172Z</time></trkpt><trkpt lat="42.2924508" lon="12.7149357"><ele>695.0</ele><time>2026-04-25T10:01:12.272Z</time></trkpt><trkpt lat="42.2923276" lon="12.7148639"><ele>695.0</ele><time>2026-04-25T10:01:26.272Z</time></trkpt><trkpt lat="42.2922727" lon="12.7148031"><ele>695.0</ele><time>2026-04-25T10:01:35.253Z</time></trkpt><trkpt lat="42.2921685" lon="12.7146884"><ele>698.25</ele><time>2026-04-25T10:01:50.272Z</time></trkpt><trkpt lat="42.2921116" lon="12.7146293"><ele>701.5</ele><time>2026-04-25T10:01:57.272Z</time></trkpt><trkpt lat="42.2920986" lon="12.7143379"><ele>704.75</ele><time>2026-04-25T10:03:21.271Z</time></trkpt><trkpt lat="42.2920375" lon="12.7143995"><ele>708.0</ele><time>2026-04-25T10:03:23.273Z</time></trkpt><trkpt lat="42.2919095" lon="12.7144448"><ele>708.0</ele><time>2026-04-25T10:03:55.27Z</time></trkpt><trkpt lat="42.291772" lon="12.714398"><ele>708.0</ele><time>2026-04-25T10:04:11.271Z</time></trkpt><trkpt lat="42.2917038" lon="12.7143794"><ele>708.0</ele><time>2026-04-25T10:04:17.27Z</time></trkpt><trkpt lat="42.2915842" lon="12.7143214"><ele>708.0</ele><time>2026-04-25T10:04:32.201Z</time></trkpt><trkpt lat="42.2915215" lon="12.7142876"><ele>708.0</ele><time>2026-04-25T10:04:39.27Z</time></trkpt><trkpt lat="42.2913813" lon="12.7142801"><ele>710.5</ele><time>2026-04-25T10:04:53.271Z</time></trkpt><trkpt lat="42.2913166" lon="12.7142638"><ele>713.0</ele><time>2026-04-25T10:05:01.27Z</time></trkpt><trkpt lat="42.2911677" lon="12.7142369"><ele>715.5</ele><time>2026-04-25T10:05:23.224Z</time></trkpt><trkpt lat="42.2910297" lon="12.7142011"><ele>718.0</ele><time>2026-04-25T10:05:45.343Z</time></trkpt><trkpt lat="42.2909723" lon="12.7140618"><ele>718.0</ele><time>2026-04-25T10:06:00.269Z</time></trkpt><trkpt lat="42.2909673" lon="12.7139769"><ele>718.0</ele><time>2026-04-25T10:06:14.27Z</time></trkpt><trkpt lat="42.2908656" lon="12.7138761"><ele>718.0</ele><time>2026-04-25T10:06:34.269Z</time></trkpt><trkpt lat="42.2907974" lon="12.7138551"><ele>718.0</ele><time>2026-04-25T10:06:43.269Z</time></trkpt><trkpt lat="42.2906894" lon="12.7137613"><ele>718.0</ele><time>2026-04-25T10:06:58.27Z</time></trkpt><trkpt lat="42.2906321" lon="12.7136997"><ele>718.0</ele><time>2026-04-25T10:07:05.27Z</time></trkpt><trkpt lat="42.2905291" lon="12.7135801"><ele>722.0</ele><time>2026-04-25T10:07:21.273Z</time></trkpt><trkpt lat="42.2904654" lon="12.7135475"><ele>710.0</ele><time>2026-04-25T10:07:29.27Z</time></trkpt><trkpt lat="42.2903379" lon="12.7135466"><ele>710.0</ele><time>2026-04-25T10:07:44.269Z</time></trkpt><trkpt lat="42.2902719" lon="12.7135165"><ele>710.0</ele><time>2026-04-25T10:07:52.27Z</time></trkpt></trkseg><trkseg><trkpt lat="42.2901381" lon="12.7134386"><ele>710.0</ele><time>2026-04-25T10:21:35.262Z</time></trkpt><trkpt lat="42.2900025" lon="12.7135191"><ele>710.0</ele><time>2026-04-25T10:21:45.263Z</time></trkpt><trkpt lat="42.2899418" lon="12.713559"><ele>710.0</ele><time>2026-04-25T10:21:50.264Z</time></trkpt><trkpt lat="42.2898811" lon="12.7136017"><ele>710.0</ele><time>2026-04-25T10:21:55.262Z</time></trkpt><trkpt lat="42.2898224" lon="12.7136623"><ele>710.0</ele><time>2026-04-25T10:22:01.261Z</time></trkpt><trkpt lat="42.2897213" lon="12.7137878"><ele>709.6666666666666</ele><time>2026-04-25T10:22:14.261Z</time></trkpt><trkpt lat="42.289659" lon="12.7138289"><ele>709.3333333333333</ele><time>2026-04-25T10:22:21.261Z</time></trkpt><trkpt lat="42.2896006" lon="12.7138616"><ele>709.0</ele><time>2026-04-25T10:22:26.262Z</time></trkpt><trkpt lat="42.2894905" lon="12.71397"><ele>708.6666666666666</ele><time>2026-04-25T10:22:37.267Z</time></trkpt><trkpt lat="42.2894522" lon="12.7140476"><ele>708.3333333333334</ele><time>2026-04-25T10:22:46.261Z</time></trkpt><trkpt lat="42.2893888" lon="12.7140864"><ele>708.0</ele><time>2026-04-25T10:22:53.262Z</time></trkpt><trkpt lat="42.2892671" lon="12.7141558"><ele>708.0</ele><time>2026-04-25T10:23:03.261Z</time></trkpt><trkpt lat="42.2892196" lon="12.7142148"><ele>708.0</ele><time>2026-04-25T10:23:08.261Z</time></trkpt><trkpt lat="42.2891662" lon="12.7142631"><ele>708.0</ele><time>2026-04-25T10:23:13.261Z</time></trkpt><trkpt lat="42.2891101" lon="12.7143192"><ele>708.0</ele><time>2026-04-25T10:23:19.22Z</time></trkpt><trkpt lat="42.2890154" lon="12.7144384"><ele>708.0</ele><time>2026-04-25T10:23:31.289Z</time></trkpt><trkpt lat="42.2889556" lon="12.714481"><ele>708.0</ele><time>2026-04-25T10:23:37.262Z</time></trkpt><trkpt lat="42.2888941" lon="12.7145357"><ele>708.4</ele><time>2026-04-25T10:23:44.262Z</time></trkpt><trkpt lat="42.2887775" lon="12.71461"><ele>708.8</ele><time>2026-04-25T10:23:57.26Z</time></trkpt><trkpt lat="42.2887145" lon="12.7146573"><ele>709.2</ele><time>2026-04-25T10:24:03.261Z</time></trkpt><trkpt lat="42.2886581" lon="12.714711"><ele>709.6</ele><time>2026-04-25T10:24:09.26Z</time></trkpt><trkpt lat="42.288544" lon="12.71481"><ele>710.0</ele><time>2026-04-25T10:24:21.205Z</time></trkpt><trkpt lat="42.2884901" lon="12.7148753"><ele>710.0</ele><time>2026-04-25T10:24:27.26Z</time></trkpt><trkpt lat="42.2884357" lon="12.7149387"><ele>710.0</ele><time>2026-04-25T10:24:33.261Z</time></trkpt><trkpt lat="42.2883146" lon="12.7150274"><ele>710.0</ele><time>2026-04-25T10:24:46.189Z</time></trkpt><trkpt lat="42.2882596" lon="12.7150735"><ele>710.0</ele><time>2026-04-25T10:24:52.166Z</time></trkpt><trkpt lat="42.2881963" lon="12.7151145"><ele>710.0</ele><time>2026-04-25T10:24:58.261Z</time></trkpt><trkpt lat="42.2880695" lon="12.7152406"><ele>710.8</ele><time>2026-04-25T10:26:15.259Z</time></trkpt><trkpt lat="42.2879486" lon="12.7153356"><ele>711.6</ele><time>2026-04-25T10:26:26.26Z</time></trkpt><trkpt lat="42.2878958" lon="12.7153824"><ele>712.4000000000001</ele><time>2026-04-25T10:26:31.259Z</time></trkpt><trkpt lat="42.287832" lon="12.7154285"><ele>713.2</ele><time>2026-04-25T10:26:37.259Z</time></trkpt><trkpt lat="42.2877006" lon="12.7154956"><ele>714.0</ele><time>2026-04-25T10:26:48.267Z</time></trkpt><trkpt lat="42.2876364" lon="12.7155104"><ele>714.0</ele><time>2026-04-25T10:26:53.259Z</time></trkpt><trkpt lat="42.2875723" lon="12.7155018"><ele>714.0</ele><time>2026-04-25T10:26:58.26Z</time></trkpt><trkpt lat="42.2874464" lon="12.7155233"><ele>714.0</ele><time>2026-04-25T10:27:08.26Z</time></trkpt><trkpt lat="42.2873722" lon="12.7155262"><ele>714.0</ele><time>2026-04-25T10:27:14.259Z</time></trkpt><trkpt lat="42.2873041" lon="12.7155334"><ele>714.0</ele><time>2026-04-25T10:27:19.26Z</time></trkpt><trkpt lat="42.2871705" lon="12.7155983"><ele>714.8333333333334</ele><time>2026-04-25T10:27:31.26Z</time></trkpt><trkpt lat="42.2871016" lon="12.7155992"><ele>715.6666666666666</ele><time>2026-04-25T10:27:36.264Z</time></trkpt><trkpt lat="42.2870318" lon="12.7156223"><ele>716.5</ele><time>2026-04-25T10:27:43.258Z</time></trkpt><trkpt lat="42.2869091" lon="12.7156892"><ele>717.3333333333333</ele><time>2026-04-25T10:27:54.258Z</time></trkpt><trkpt lat="42.2868514" lon="12.7157312"><ele>718.1666666666666</ele><time>2026-04-25T10:27:59.259Z</time></trkpt><trkpt lat="42.2867803" lon="12.7157697"><ele>719.0</ele><time>2026-04-25T10:28:05.258Z</time></trkpt><trkpt lat="42.2866401" lon="12.7157925"><ele>719.0</ele><time>2026-04-25T10:28:16.258Z</time></trkpt><trkpt lat="42.2865823" lon="12.7158279"><ele>719.0</ele><time>2026-04-25T10:28:21.258Z</time></trkpt><trkpt lat="42.2865202" lon="12.7158441"><ele>719.0</ele><time>2026-04-25T10:28:28.258Z</time></trkpt><trkpt lat="42.2863879" lon="12.715806"><ele>719.0</ele><time>2026-04-25T10:28:40.259Z</time></trkpt><trkpt lat="42.2863089" lon="12.7158224"><ele>719.0</ele><time>2026-04-25T10:28:45.259Z</time></trkpt><trkpt lat="42.2862434" lon="12.7158319"><ele>719.0</ele><time>2026-04-25T10:28:50.21Z</time></trkpt><trkpt lat="42.2861141" lon="12.715814"><ele>718.4000000000001</ele><time>2026-04-25T10:31:10.256Z</time></trkpt><trkpt lat="42.2859823" lon="12.715772"><ele>717.8</ele><time>2026-04-25T10:31:20.257Z</time></trkpt><trkpt lat="42.2859126" lon="12.7157589"><ele>717.2</ele><time>2026-04-25T10:31:25.256Z</time></trkpt><trkpt lat="42.2858422" lon="12.7157862"><ele>716.5999999999999</ele><time>2026-04-25T10:31:30.256Z</time></trkpt><trkpt lat="42.2857723" lon="12.7158026"><ele>716.0</ele><time>2026-04-25T10:31:35.176Z</time></trkpt><trkpt lat="42.2856425" lon="12.7157381"><ele>714.6666666666666</ele><time>2026-04-25T10:31:45.217Z</time></trkpt><trkpt lat="42.2855795" lon="12.7157094"><ele>713.3333333333333</ele><time>2026-04-25T10:31:50.179Z</time></trkpt><trkpt lat="42.2855158" lon="12.7156868"><ele>712.0</ele><time>2026-04-25T10:31:55.255Z</time></trkpt><trkpt lat="42.2853844" lon="12.715678"><ele>710.6666666666666</ele><time>2026-04-25T10:32:05.255Z</time></trkpt><trkpt lat="42.2853257" lon="12.715722"><ele>709.3333333333334</ele><time>2026-04-25T10:32:10.255Z</time></trkpt><trkpt lat="42.2852694" lon="12.7157716"><ele>708.0</ele><time>2026-04-25T10:32:15.288Z</time></trkpt><trkpt lat="42.285202" lon="12.7158143"><ele>708.0</ele><time>2026-04-25T10:32:21.255Z</time></trkpt><trkpt lat="42.2850656" lon="12.7158292"><ele>708.0</ele><time>2026-04-25T10:32:32.256Z</time></trkpt><trkpt lat="42.2849961" lon="12.7158338"><ele>708.0</ele><time>2026-04-25T10:32:38.195Z</time></trkpt><trkpt lat="42.2849334" lon="12.7158448"><ele>708.0</ele><time>2026-04-25T10:32:44.255Z</time></trkpt><trkpt lat="42.2846876" lon="12.71606"><ele>706.0</ele><time>2026-04-25T10:34:25.255Z</time></trkpt><trkpt lat="42.2846743" lon="12.7161504"><ele>704.0</ele><time>2026-04-25T10:34:31.256Z</time></trkpt><trkpt lat="42.2846671" lon="12.7162376"><ele>702.0</ele><time>2026-04-25T10:34:37.259Z</time></trkpt><trkpt lat="42.2846637" lon="12.7163309"><ele>700.0</ele><time>2026-04-25T10:34:44.288Z</time></trkpt><trkpt lat="42.2846594" lon="12.7164163"><ele>698.0</ele><time>2026-04-25T10:34:52.254Z</time></trkpt><trkpt lat="42.284651" lon="12.7165087"><ele>696.0</ele><time>2026-04-25T10:35:02.197Z</time></trkpt><trkpt lat="42.2846414" lon="12.7165948"><ele>694.0</ele><time>2026-04-25T10:35:14.157Z</time></trkpt><trkpt lat="42.2845781" lon="12.7165868"><ele>694.0</ele><time>2026-04-25T10:35:19.298Z</time></trkpt><trkpt lat="42.2845066" lon="12.7165875"><ele>694.0</ele><time>2026-04-25T10:35:25.257Z</time></trkpt><trkpt lat="42.2844567" lon="12.7166507"><ele>694.0</ele><time>2026-04-25T10:35:32.255Z</time></trkpt><trkpt lat="42.2844809" lon="12.7167304"><ele>694.0</ele><time>2026-04-25T10:35:39.254Z</time></trkpt><trkpt lat="42.2845151" lon="12.7168021"><ele>694.0</ele><time>2026-04-25T10:35:46.255Z</time></trkpt><trkpt lat="42.2845434" lon="12.7168849"><ele>694.0</ele><time>2026-04-25T10:35:53.272Z</time></trkpt><trkpt lat="42.2845723" lon="12.7169646"><ele>694.0</ele><time>2026-04-25T10:36:00.255Z</time></trkpt><trkpt lat="42.2846094" lon="12.7170349"><ele>692.7142857142858</ele><time>2026-04-25T10:36:07.254Z</time></trkpt><trkpt lat="42.2846247" lon="12.7171286"><ele>691.4285714285713</ele><time>2026-04-25T10:36:16.231Z</time></trkpt><trkpt lat="42.2846392" lon="12.717213"><ele>690.1428571428571</ele><time>2026-04-25T10:36:25.253Z</time></trkpt><trkpt lat="42.2846104" lon="12.7172903"><ele>688.8571428571429</ele><time>2026-04-25T10:36:35.254Z</time></trkpt><trkpt lat="42.2845903" lon="12.7173842"><ele>687.5714285714287</ele><time>2026-04-25T10:36:43.253Z</time></trkpt><trkpt lat="42.2845622" lon="12.7174664"><ele>686.2857142857142</ele><time>2026-04-25T10:36:51.253Z</time></trkpt><trkpt lat="42.2845243" lon="12.7175363"><ele>685.0</ele><time>2026-04-25T10:36:59.255Z</time></trkpt><trkpt lat="42.2844842" lon="12.717607"><ele>685.0</ele><time>2026-04-25T10:37:06.238Z</time></trkpt><trkpt lat="42.2844187" lon="12.7176165"><ele>685.0</ele><time>2026-04-25T10:37:15.253Z</time></trkpt><trkpt lat="42.2843518" lon="12.7176252"><ele>685.0</ele><time>2026-04-25T10:37:23.253Z</time></trkpt><trkpt lat="42.2842846" lon="12.7176424"><ele>685.0</ele><time>2026-04-25T10:37:33.253Z</time></trkpt><trkpt lat="42.284219" lon="12.717621"><ele>685.0</ele><time>2026-04-25T10:37:42.292Z</time></trkpt><trkpt lat="42.2841553" lon="12.7176363"><ele>685.0</ele><time>2026-04-25T10:37:49.253Z</time></trkpt><trkpt lat="42.2840829" lon="12.7176447"><ele>685.0</ele><time>2026-04-25T10:37:56.284Z</time></trkpt><trkpt lat="42.284018" lon="12.7176351"><ele>685.0</ele><time>2026-04-25T10:38:01.253Z</time></trkpt><trkpt lat="42.2839504" lon="12.7176656"><ele>685.0</ele><time>2026-04-25T10:38:09.252Z</time></trkpt><trkpt lat="42.2838828" lon="12.7176606"><ele>685.0</ele><time>2026-04-25T10:38:15.257Z</time></trkpt><trkpt lat="42.2838147" lon="12.7176375"><ele>685.0</ele><time>2026-04-25T10:38:22.248Z</time></trkpt><trkpt lat="42.2837468" lon="12.7176597"><ele>685.0</ele><time>2026-04-25T10:38:29.209Z</time></trkpt><trkpt lat="42.2836805" lon="12.7176945"><ele>685.0</ele><time>2026-04-25T10:38:37.253Z</time></trkpt><trkpt lat="42.2836266" lon="12.717757"><ele>685.0</ele><time>2026-04-25T10:38:44.276Z</time></trkpt><trkpt lat="42.2835648" lon="12.7177973"><ele>681.7142857142857</ele><time>2026-04-25T10:38:51.188Z</time></trkpt><trkpt lat="42.2834954" lon="12.7177707"><ele>678.4285714285714</ele><time>2026-04-25T10:38:59.253Z</time></trkpt><trkpt lat="42.2834683" lon="12.7178531"><ele>675.1428571428571</ele><time>2026-04-25T10:39:09.253Z</time></trkpt><trkpt lat="42.283438" lon="12.7179281"><ele>671.8571428571429</ele><time>2026-04-25T10:39:17.255Z</time></trkpt><trkpt lat="42.2833793" lon="12.7179857"><ele>668.5714285714286</ele><time>2026-04-25T10:39:24.252Z</time></trkpt><trkpt lat="42.2833114" lon="12.7180111"><ele>665.2857142857143</ele><time>2026-04-25T10:39:33.253Z</time></trkpt><trkpt lat="42.2832514" lon="12.7180545"><ele>662.0</ele><time>2026-04-25T10:39:42.23Z</time></trkpt><trkpt lat="42.2831883" lon="12.7180452"><ele>662.0</ele><time>2026-04-25T10:39:57.251Z</time></trkpt><trkpt lat="42.28312" lon="12.7180408"><ele>662.0</ele><time>2026-04-25T10:40:13.188Z</time></trkpt><trkpt lat="42.2830621" lon="12.7180018"><ele>662.0</ele><time>2026-04-25T10:40:19.212Z</time></trkpt><trkpt lat="42.2830234" lon="12.7179255"><ele>662.0</ele><time>2026-04-25T10:40:24.289Z</time></trkpt><trkpt lat="42.2829761" lon="12.7178547"><ele>662.0</ele><time>2026-04-25T10:40:31.252Z</time></trkpt><trkpt lat="42.2829129" lon="12.7178053"><ele>662.0</ele><time>2026-04-25T10:40:37.252Z</time></trkpt><trkpt lat="42.2828502" lon="12.7177695"><ele>662.0</ele><time>2026-04-25T10:40:44.251Z</time></trkpt><trkpt lat="42.2828057" lon="12.7177084"><ele>661.0</ele><time>2026-04-25T10:40:50.252Z</time></trkpt><trkpt lat="42.2827428" lon="12.7176972"><ele>660.0</ele><time>2026-04-25T10:40:56.252Z</time></trkpt><trkpt lat="42.2826825" lon="12.7176577"><ele>659.0</ele><time>2026-04-25T10:41:04.255Z</time></trkpt><trkpt lat="42.2826158" lon="12.7176776"><ele>658.0</ele><time>2026-04-25T10:41:12.252Z</time></trkpt><trkpt lat="42.2825587" lon="12.7177232"><ele>657.0</ele><time>2026-04-25T10:41:17.3Z</time></trkpt><trkpt lat="42.2825549" lon="12.7178173"><ele>656.0</ele><time>2026-04-25T10:41:23.227Z</time></trkpt><trkpt lat="42.2825603" lon="12.7179116"><ele>655.0</ele><time>2026-04-25T10:41:29.258Z</time></trkpt><trkpt lat="42.2825843" lon="12.7179923"><ele>655.0</ele><time>2026-04-25T10:41:35.25Z</time></trkpt><trkpt lat="42.2825913" lon="12.71809"><ele>655.0</ele><time>2026-04-25T10:41:42.234Z</time></trkpt><trkpt lat="42.2825783" lon="12.7181746"><ele>655.0</ele><time>2026-04-25T10:41:47.25Z</time></trkpt><trkpt lat="42.2825938" lon="12.7182669"><ele>655.0</ele><time>2026-04-25T10:41:53.359Z</time></trkpt><trkpt lat="42.2826666" lon="12.7183004"><ele>655.0</ele><time>2026-04-25T10:42:18.261Z</time></trkpt><trkpt lat="42.2827252" lon="12.7183358"><ele>655.0</ele><time>2026-04-25T10:42:23.25Z</time></trkpt><trkpt lat="42.2827833" lon="12.7183852"><ele>655.0</ele><time>2026-04-25T10:42:28.25Z</time></trkpt><trkpt lat="42.2828393" lon="12.7184336"><ele>655.0</ele><time>2026-04-25T10:42:33.29Z</time></trkpt><trkpt lat="42.2828899" lon="12.7184882"><ele>655.0</ele><time>2026-04-25T10:42:38.25Z</time></trkpt><trkpt lat="42.2829423" lon="12.7185407"><ele>655.0</ele><time>2026-04-25T10:42:43.264Z</time></trkpt><trkpt lat="42.2829923" lon="12.7185999"><ele>655.0</ele><time>2026-04-25T10:42:48.25Z</time></trkpt><trkpt lat="42.2830357" lon="12.7186719"><ele>655.0</ele><time>2026-04-25T10:42:54.25Z</time></trkpt><trkpt lat="42.283096" lon="12.7187187"><ele>655.0</ele><time>2026-04-25T10:43:00.251Z</time></trkpt><trkpt lat="42.2831538" lon="12.7187808"><ele>655.0</ele><time>2026-04-25T10:43:06.258Z</time></trkpt><trkpt lat="42.2832096" lon="12.7188419"><ele>653.8571428571429</ele><time>2026-04-25T10:43:12.249Z</time></trkpt><trkpt lat="42.2832681" lon="12.718884"><ele>652.7142857142857</ele><time>2026-04-25T10:43:18.25Z</time></trkpt><trkpt lat="42.2833241" lon="12.7189431"><ele>651.5714285714286</ele><time>2026-04-25T10:43:24.25Z</time></trkpt><trkpt lat="42.2833783" lon="12.7190059"><ele>650.4285714285714</ele><time>2026-04-25T10:43:30.256Z</time></trkpt><trkpt lat="42.283451" lon="12.7190234"><ele>649.2857142857143</ele><time>2026-04-25T10:43:36.25Z</time></trkpt><trkpt lat="42.2835255" lon="12.7190439"><ele>648.1428571428571</ele><time>2026-04-25T10:43:42.25Z</time></trkpt><trkpt lat="42.2835921" lon="12.7190621"><ele>647.0</ele><time>2026-04-25T10:43:47.249Z</time></trkpt><trkpt lat="42.2836559" lon="12.7190898"><ele>647.0</ele><time>2026-04-25T10:43:52.21Z</time></trkpt><trkpt lat="42.2837042" lon="12.7191505"><ele>647.0</ele><time>2026-04-25T10:43:57.267Z</time></trkpt><trkpt lat="42.2837629" lon="12.7191931"><ele>647.0</ele><time>2026-04-25T10:44:03.09Z</time></trkpt><trkpt lat="42.2838207" lon="12.7192282"><ele>647.0</ele><time>2026-04-25T10:44:08.235Z</time></trkpt><trkpt lat="42.2838945" lon="12.7192392"><ele>647.0</ele><time>2026-04-25T10:44:14.249Z</time></trkpt><trkpt lat="42.2839714" lon="12.7192286"><ele>647.0</ele><time>2026-04-25T10:44:19.257Z</time></trkpt><trkpt lat="42.2840356" lon="12.7192407"><ele>647.0</ele><time>2026-04-25T10:44:24.25Z</time></trkpt><trkpt lat="42.2840979" lon="12.7192591"><ele>647.8571428571429</ele><time>2026-04-25T10:44:29.249Z</time></trkpt><trkpt lat="42.2841628" lon="12.7192854"><ele>648.7142857142858</ele><time>2026-04-25T10:44:35.25Z</time></trkpt><trkpt lat="42.2842336" lon="12.7193011"><ele>649.5714285714287</ele><time>2026-04-25T10:44:43.208Z</time></trkpt><trkpt lat="42.2843048" lon="12.719315"><ele>650.4285714285714</ele><time>2026-04-25T10:44:50.25Z</time></trkpt><trkpt lat="42.2843765" lon="12.7193447"><ele>651.2857142857143</ele><time>2026-04-25T10:44:56.249Z</time></trkpt><trkpt lat="42.2844473" lon="12.7193692"><ele>652.1428571428572</ele><time>2026-04-25T10:45:02.248Z</time></trkpt><trkpt lat="42.2845152" lon="12.7193703"><ele>653.0</ele><time>2026-04-25T10:45:08.257Z</time></trkpt><trkpt lat="42.2845786" lon="12.7193564"><ele>653.0000000000001</ele><time>2026-04-25T10:45:14.158Z</time></trkpt><trkpt lat="42.284647" lon="12.7193307"><ele>653.0</ele><time>2026-04-25T10:45:20.25Z</time></trkpt><trkpt lat="42.284715" lon="12.7193058"><ele>653.0</ele><time>2026-04-25T10:45:26.248Z</time></trkpt><trkpt lat="42.2847708" lon="12.7192569"><ele>653.0</ele><time>2026-04-25T10:45:31.251Z</time></trkpt><trkpt lat="42.284825" lon="12.7191972"><ele>653.0</ele><time>2026-04-25T10:45:37.249Z</time></trkpt><trkpt lat="42.2848764" lon="12.7191331"><ele>653.0000000000001</ele><time>2026-04-25T10:45:42.248Z</time></trkpt><trkpt lat="42.284926" lon="12.7190786"><ele>653.0</ele><time>2026-04-25T10:45:47.25Z</time></trkpt><trkpt lat="42.2849953" lon="12.7190685"><ele>653.5714285714287</ele><time>2026-04-25T10:45:54.249Z</time></trkpt><trkpt lat="42.2850549" lon="12.7191194"><ele>654.1428571428571</ele><time>2026-04-25T10:46:00.27Z</time></trkpt><trkpt lat="42.2850742" lon="12.7192043"><ele>654.7142857142858</ele><time>2026-04-25T10:46:06.248Z</time></trkpt><trkpt lat="42.2851001" lon="12.7192824"><ele>655.2857142857143</ele><time>2026-04-25T10:46:11.249Z</time></trkpt><trkpt lat="42.285129" lon="12.7193758"><ele>655.8571428571429</ele><time>2026-04-25T10:46:17.292Z</time></trkpt><trkpt lat="42.285157" lon="12.7194536"><ele>656.4285714285714</ele><time>2026-04-25T10:46:22.26Z</time></trkpt><trkpt lat="42.2851776" lon="12.7195349"><ele>657.0</ele><time>2026-04-25T10:46:27.28Z</time></trkpt><trkpt lat="42.2851883" lon="12.7196331"><ele>654.8571428571428</ele><time>2026-04-25T10:46:33.189Z</time></trkpt><trkpt lat="42.2851891" lon="12.7197238"><ele>652.7142857142858</ele><time>2026-04-25T10:46:39.248Z</time></trkpt><trkpt lat="42.2851939" lon="12.7198193"><ele>650.5714285714286</ele><time>2026-04-25T10:46:45.253Z</time></trkpt><trkpt lat="42.2852106" lon="12.7199068"><ele>648.4285714285713</ele><time>2026-04-25T10:46:51.112Z</time></trkpt><trkpt lat="42.2852673" lon="12.7199465"><ele>646.2857142857142</ele><time>2026-04-25T10:47:01.247Z</time></trkpt><trkpt lat="42.285325" lon="12.7200043"><ele>644.1428571428571</ele><time>2026-04-25T10:47:07.247Z</time></trkpt><trkpt lat="42.2853951" lon="12.7200252"><ele>642.0</ele><time>2026-04-25T10:47:14.247Z</time></trkpt><trkpt lat="42.285461" lon="12.7200416"><ele>641.9999999999999</ele><time>2026-04-25T10:47:21.248Z</time></trkpt><trkpt lat="42.2855271" lon="12.7200797"><ele>642.0</ele><time>2026-04-25T10:47:28.247Z</time></trkpt><trkpt lat="42.2855899" lon="12.7201278"><ele>642.0</ele><time>2026-04-25T10:47:35.257Z</time></trkpt><trkpt lat="42.2856493" lon="12.7201631"><ele>642.0</ele><time>2026-04-25T10:47:42.248Z</time></trkpt><trkpt lat="42.2857159" lon="12.7201583"><ele>642.0</ele><time>2026-04-25T10:47:56.227Z</time></trkpt><trkpt lat="42.285783" lon="12.7201734"><ele>641.9999999999999</ele><time>2026-04-25T10:48:02.268Z</time></trkpt><trkpt lat="42.2858435" lon="12.7202006"><ele>642.0</ele><time>2026-04-25T10:48:08.248Z</time></trkpt><trkpt lat="42.2859101" lon="12.7202268"><ele>641.4285714285713</ele><time>2026-04-25T10:48:14.247Z</time></trkpt><trkpt lat="42.2859773" lon="12.7202412"><ele>640.8571428571429</ele><time>2026-04-25T10:48:20.249Z</time></trkpt><trkpt lat="42.2860456" lon="12.7202493"><ele>640.2857142857142</ele><time>2026-04-25T10:48:26.265Z</time></trkpt><trkpt lat="42.286114" lon="12.7202717"><ele>639.7142857142857</ele><time>2026-04-25T10:48:32.246Z</time></trkpt><trkpt lat="42.286186" lon="12.720297"><ele>639.1428571428571</ele><time>2026-04-25T10:48:39.247Z</time></trkpt><trkpt lat="42.2862591" lon="12.7203237"><ele>638.5714285714286</ele><time>2026-04-25T10:48:45.247Z</time></trkpt><trkpt lat="42.2863215" lon="12.7203401"><ele>638.0</ele><time>2026-04-25T10:48:50.263Z</time></trkpt><trkpt lat="42.2863921" lon="12.7203476"><ele>639.1428571428572</ele><time>2026-04-25T10:48:56.25Z</time></trkpt><trkpt lat="42.2864663" lon="12.720329"><ele>640.2857142857142</ele><time>2026-04-25T10:49:03.246Z</time></trkpt><trkpt lat="42.2865347" lon="12.7203347"><ele>641.4285714285714</ele><time>2026-04-25T10:49:08.246Z</time></trkpt><trkpt lat="42.2865991" lon="12.7203563"><ele>642.5714285714287</ele><time>2026-04-25T10:49:13.256Z</time></trkpt><trkpt lat="42.2866721" lon="12.7203764"><ele>643.7142857142858</ele><time>2026-04-25T10:49:19.246Z</time></trkpt><trkpt lat="42.2867445" lon="12.7203743"><ele>644.8571428571429</ele><time>2026-04-25T10:49:25.246Z</time></trkpt><trkpt lat="42.2868125" lon="12.7203769"><ele>646.0</ele><time>2026-04-25T10:49:33.247Z</time></trkpt><trkpt lat="42.286883" lon="12.720353"><ele>646.0000000000001</ele><time>2026-04-25T10:49:40.295Z</time></trkpt><trkpt lat="42.2869525" lon="12.7203455"><ele>646.0</ele><time>2026-04-25T10:49:46.233Z</time></trkpt><trkpt lat="42.2870261" lon="12.7203346"><ele>646.0</ele><time>2026-04-25T10:49:52.213Z</time></trkpt><trkpt lat="42.2870902" lon="12.7203359"><ele>646.0</ele><time>2026-04-25T10:49:57.246Z</time></trkpt><trkpt lat="42.2871556" lon="12.7203334"><ele>646.0</ele><time>2026-04-25T10:50:02.207Z</time></trkpt><trkpt lat="42.2872295" lon="12.7203528"><ele>646.0000000000001</ele><time>2026-04-25T10:50:07.247Z</time></trkpt><trkpt lat="42.2872951" lon="12.7203684"><ele>646.0</ele><time>2026-04-25T10:50:12.228Z</time></trkpt><trkpt lat="42.2873582" lon="12.7203748"><ele>645.4285714285714</ele><time>2026-04-25T10:50:18.245Z</time></trkpt><trkpt lat="42.2874281" lon="12.7203771"><ele>644.8571428571429</ele><time>2026-04-25T10:50:36.245Z</time></trkpt><trkpt lat="42.2874924" lon="12.7204013"><ele>644.2857142857142</ele><time>2026-04-25T10:50:40.245Z</time></trkpt><trkpt lat="42.2875663" lon="12.7204069"><ele>643.7142857142858</ele><time>2026-04-25T10:50:46.246Z</time></trkpt><trkpt lat="42.2876367" lon="12.7204008"><ele>643.1428571428571</ele><time>2026-04-25T10:50:52.257Z</time></trkpt><trkpt lat="42.287698" lon="12.7203742"><ele>642.5714285714286</ele><time>2026-04-25T10:50:58.245Z</time></trkpt><trkpt lat="42.2877639" lon="12.7203397"><ele>642.0</ele><time>2026-04-25T10:51:04.294Z</time></trkpt><trkpt lat="42.2878284" lon="12.7203014"><ele>641.9999999999999</ele><time>2026-04-25T10:51:10.245Z</time></trkpt><trkpt lat="42.2878911" lon="12.7202873"><ele>642.0</ele><time>2026-04-25T10:51:15.152Z</time></trkpt><trkpt lat="42.2879544" lon="12.7202642"><ele>642.0</ele><time>2026-04-25T10:51:21.246Z</time></trkpt><trkpt lat="42.2880125" lon="12.7202211"><ele>642.0</ele><time>2026-04-25T10:51:28.245Z</time></trkpt><trkpt lat="42.2880544" lon="12.7201525"><ele>642.0</ele><time>2026-04-25T10:51:37.245Z</time></trkpt><trkpt lat="42.2880939" lon="12.7200812"><ele>641.9999999999999</ele><time>2026-04-25T10:52:04.249Z</time></trkpt><trkpt lat="42.2881299" lon="12.7199758"><ele>642.0</ele><time>2026-04-25T10:58:30.242Z</time></trkpt><trkpt lat="42.2881682" lon="12.7199002"><ele>643.2857142857142</ele><time>2026-04-25T10:58:36.241Z</time></trkpt><trkpt lat="42.2881786" lon="12.7198152"><ele>644.5714285714286</ele><time>2026-04-25T10:59:09.241Z</time></trkpt><trkpt lat="42.2881922" lon="12.7197309"><ele>645.8571428571429</ele><time>2026-04-25T10:59:14.195Z</time></trkpt><trkpt lat="42.2881982" lon="12.7196374"><ele>647.1428571428571</ele><time>2026-04-25T10:59:21.241Z</time></trkpt><trkpt lat="42.2882267" lon="12.7195528"><ele>648.4285714285714</ele><time>2026-04-25T10:59:29.242Z</time></trkpt><trkpt lat="42.2882729" lon="12.7194947"><ele>649.7142857142857</ele><time>2026-04-25T10:59:37.241Z</time></trkpt><trkpt lat="42.2883389" lon="12.7195159"><ele>651.0</ele><time>2026-04-25T10:59:54.24Z</time></trkpt><trkpt lat="42.2883985" lon="12.7195474"><ele>651.0</ele><time>2026-04-25T10:59:58.251Z</time></trkpt><trkpt lat="42.2884519" lon="12.719607"><ele>651.0</ele><time>2026-04-25T11:00:03.24Z</time></trkpt><trkpt lat="42.288501" lon="12.7196719"><ele>651.0</ele><time>2026-04-25T11:00:08.24Z</time></trkpt><trkpt lat="42.2885438" lon="12.719743"><ele>651.0</ele><time>2026-04-25T11:00:13.241Z</time></trkpt><trkpt lat="42.2885824" lon="12.7198145"><ele>651.0</ele><time>2026-04-25T11:00:18.29Z</time></trkpt><trkpt lat="42.2886188" lon="12.7198905"><ele>651.0</ele><time>2026-04-25T11:00:23.246Z</time></trkpt><trkpt lat="42.2886522" lon="12.7199695"><ele>651.0</ele><time>2026-04-25T11:00:28.228Z</time></trkpt><trkpt lat="42.2886935" lon="12.7200415"><ele>651.0</ele><time>2026-04-25T11:00:33.241Z</time></trkpt><trkpt lat="42.2887393" lon="12.7201216"><ele>651.0</ele><time>2026-04-25T11:00:39.24Z</time></trkpt><trkpt lat="42.2887846" lon="12.7201971"><ele>651.0</ele><time>2026-04-25T11:00:45.242Z</time></trkpt><trkpt lat="42.2888269" lon="12.7202724"><ele>651.0</ele><time>2026-04-25T11:00:51.258Z</time></trkpt><trkpt lat="42.2888514" lon="12.7203615"><ele>651.0</ele><time>2026-04-25T11:00:58.24Z</time></trkpt><trkpt lat="42.2888939" lon="12.7204351"><ele>651.0</ele><time>2026-04-25T11:01:03.292Z</time></trkpt><trkpt lat="42.2889335" lon="12.7205129"><ele>651.0</ele><time>2026-04-25T11:01:08.241Z</time></trkpt><trkpt lat="42.2889718" lon="12.7205862"><ele>649.8571428571429</ele><time>2026-04-25T11:01:13.146Z</time></trkpt><trkpt lat="42.2890136" lon="12.7206626"><ele>648.7142857142858</ele><time>2026-04-25T11:01:19.24Z</time></trkpt><trkpt lat="42.2890576" lon="12.7207376"><ele>647.5714285714286</ele><time>2026-04-25T11:01:25.24Z</time></trkpt><trkpt lat="42.2891048" lon="12.7208043"><ele>646.4285714285714</ele><time>2026-04-25T11:01:31.241Z</time></trkpt><trkpt lat="42.2891672" lon="12.7208471"><ele>645.2857142857143</ele><time>2026-04-25T11:01:37.242Z</time></trkpt><trkpt lat="42.2892338" lon="12.7208605"><ele>644.1428571428571</ele><time>2026-04-25T11:01:44.239Z</time></trkpt><trkpt lat="42.2892965" lon="12.7208895"><ele>643.0</ele><time>2026-04-25T11:01:50.24Z</time></trkpt><trkpt lat="42.2893567" lon="12.7209186"><ele>643.0</ele><time>2026-04-25T11:01:55.24Z</time></trkpt><trkpt lat="42.289421" lon="12.7209289"><ele>643.0</ele><time>2026-04-25T11:02:01.239Z</time></trkpt><trkpt lat="42.2894941" lon="12.7209222"><ele>643.0</ele><time>2026-04-25T11:02:08.293Z</time></trkpt><trkpt lat="42.2895594" lon="12.7209488"><ele>643.0</ele><time>2026-04-25T11:02:14.228Z</time></trkpt><trkpt lat="42.2896314" lon="12.7209657"><ele>643.0</ele><time>2026-04-25T11:02:21.239Z</time></trkpt><trkpt lat="42.2897053" lon="12.7209825"><ele>643.0</ele><time>2026-04-25T11:02:27.239Z</time></trkpt><trkpt lat="42.2897756" lon="12.7210062"><ele>643.0</ele><time>2026-04-25T11:02:33.261Z</time></trkpt><trkpt lat="42.2898334" lon="12.7210431"><ele>642.8571428571428</ele><time>2026-04-25T11:02:38.235Z</time></trkpt><trkpt lat="42.2898874" lon="12.72109"><ele>642.7142857142858</ele><time>2026-04-25T11:02:48.239Z</time></trkpt><trkpt lat="42.2899606" lon="12.7210901"><ele>642.5714285714286</ele><time>2026-04-25T11:02:53.24Z</time></trkpt><trkpt lat="42.2900362" lon="12.721068"><ele>642.4285714285713</ele><time>2026-04-25T11:02:58.26Z</time></trkpt><trkpt lat="42.2901075" lon="12.7210925"><ele>642.2857142857142</ele><time>2026-04-25T11:03:03.241Z</time></trkpt><trkpt lat="42.2901716" lon="12.7211234"><ele>642.1428571428571</ele><time>2026-04-25T11:03:08.175Z</time></trkpt><trkpt lat="42.2902317" lon="12.72116"><ele>642.0</ele><time>2026-04-25T11:03:13.239Z</time></trkpt><trkpt lat="42.2902898" lon="12.7212043"><ele>641.9999999999999</ele><time>2026-04-25T11:03:19.245Z</time></trkpt><trkpt lat="42.2903542" lon="12.7212242"><ele>642.0</ele><time>2026-04-25T11:03:27.239Z</time></trkpt><trkpt lat="42.2904255" lon="12.7212232"><ele>642.0</ele><time>2026-04-25T11:03:32.24Z</time></trkpt><trkpt lat="42.2904906" lon="12.7212187"><ele>642.0</ele><time>2026-04-25T11:03:37.873Z</time></trkpt><trkpt lat="42.2905593" lon="12.7212283"><ele>642.0</ele><time>2026-04-25T11:03:43.24Z</time></trkpt><trkpt lat="42.2906235" lon="12.7212463"><ele>641.9999999999999</ele><time>2026-04-25T11:03:50.238Z</time></trkpt><trkpt lat="42.2906903" lon="12.7212542"><ele>642.0</ele><time>2026-04-25T11:03:56.238Z</time></trkpt><trkpt lat="42.2907598" lon="12.7212589"><ele>642.9999999999999</ele><time>2026-04-25T11:04:02.238Z</time></trkpt><trkpt lat="42.290832" lon="12.721271"><ele>644.0</ele><time>2026-04-25T11:04:08.239Z</time></trkpt><trkpt lat="42.2909023" lon="12.7212579"><ele>645.0</ele><time>2026-04-25T11:04:14.238Z</time></trkpt><trkpt lat="42.2909688" lon="12.7212473"><ele>646.0</ele><time>2026-04-25T11:04:20.25Z</time></trkpt><trkpt lat="42.2910349" lon="12.7212307"><ele>647.0</ele><time>2026-04-25T11:04:25.209Z</time></trkpt><trkpt lat="42.2911098" lon="12.72122"><ele>647.9999999999999</ele><time>2026-04-25T11:04:30.238Z</time></trkpt><trkpt lat="42.2911791" lon="12.7212181"><ele>649.0</ele><time>2026-04-25T11:04:35.228Z</time></trkpt><trkpt lat="42.2912469" lon="12.7212042"><ele>648.9999999999999</ele><time>2026-04-25T11:04:40.17Z</time></trkpt><trkpt lat="42.2913145" lon="12.7211777"><ele>649.0</ele><time>2026-04-25T11:04:45.239Z</time></trkpt><trkpt lat="42.2913902" lon="12.7211534"><ele>649.0</ele><time>2026-04-25T11:04:50.238Z</time></trkpt><trkpt lat="42.2914554" lon="12.7211214"><ele>649.0</ele><time>2026-04-25T11:04:55.238Z</time></trkpt><trkpt lat="42.2915274" lon="12.7210911"><ele>649.0</ele><time>2026-04-25T11:05:01.261Z</time></trkpt><trkpt lat="42.2916028" lon="12.7210871"><ele>648.9999999999999</ele><time>2026-04-25T11:05:07.239Z</time></trkpt><trkpt lat="42.2916758" lon="12.7210686"><ele>649.0</ele><time>2026-04-25T11:05:13.238Z</time></trkpt><trkpt lat="42.2917465" lon="12.7210554"><ele>649.5714285714286</ele><time>2026-04-25T11:05:19.238Z</time></trkpt><trkpt lat="42.2918101" lon="12.7210384"><ele>650.1428571428571</ele><time>2026-04-25T11:05:24.292Z</time></trkpt><trkpt lat="42.2918762" lon="12.7210506"><ele>650.7142857142858</ele><time>2026-04-25T11:05:29.239Z</time></trkpt><trkpt lat="42.2919458" lon="12.7210491"><ele>651.2857142857142</ele><time>2026-04-25T11:05:35.237Z</time></trkpt><trkpt lat="42.2920102" lon="12.7210347"><ele>651.8571428571429</ele><time>2026-04-25T11:05:41.237Z</time></trkpt><trkpt lat="42.292078" lon="12.7210592"><ele>652.4285714285714</ele><time>2026-04-25T11:05:47.235Z</time></trkpt><trkpt lat="42.2921328" lon="12.7211018"><ele>653.0</ele><time>2026-04-25T11:05:53.256Z</time></trkpt><trkpt lat="42.292188" lon="12.7211669"><ele>653.0</ele><time>2026-04-25T11:06:00.238Z</time></trkpt></trkseg><trkseg><trkpt lat="42.2921623" lon="12.7213847"><ele>653.0</ele><time>2026-04-25T11:33:16.224Z</time></trkpt><trkpt lat="42.2921928" lon="12.7212472"><ele>653.0</ele><time>2026-04-25T11:33:22.225Z</time></trkpt><trkpt lat="42.2922132" lon="12.7211602"><ele>653.0</ele><time>2026-04-25T11:33:25.225Z</time></trkpt><trkpt lat="42.2922769" lon="12.7211728"><ele>653.0</ele><time>2026-04-25T11:33:32.225Z</time></trkpt><trkpt lat="42.2923533" lon="12.7211508"><ele>653.0</ele><time>2026-04-25T11:33:54.223Z</time></trkpt><trkpt lat="42.2924234" lon="12.721126"><ele>653.0</ele><time>2026-04-25T11:33:59.233Z</time></trkpt><trkpt lat="42.2924869" lon="12.7211218"><ele>654.1428571428572</ele><time>2026-04-25T11:34:04.224Z</time></trkpt><trkpt lat="42.292558" lon="12.7211454"><ele>655.2857142857143</ele><time>2026-04-25T11:34:10.218Z</time></trkpt><trkpt lat="42.2926222" lon="12.7211901"><ele>656.4285714285714</ele><time>2026-04-25T11:34:16.229Z</time></trkpt><trkpt lat="42.2926792" lon="12.7212485"><ele>657.5714285714287</ele><time>2026-04-25T11:34:22.223Z</time></trkpt><trkpt lat="42.2927372" lon="12.7212938"><ele>658.7142857142858</ele><time>2026-04-25T11:34:28.223Z</time></trkpt><trkpt lat="42.2927954" lon="12.7213339"><ele>659.8571428571429</ele><time>2026-04-25T11:34:34.223Z</time></trkpt><trkpt lat="42.2928057" lon="12.7214301"><ele>661.0</ele><time>2026-04-25T11:34:52.139Z</time></trkpt><trkpt lat="42.2928309" lon="12.7215113"><ele>661.0</ele><time>2026-04-25T11:34:58.224Z</time></trkpt><trkpt lat="42.2928682" lon="12.7215895"><ele>661.0</ele><time>2026-04-25T11:35:04.235Z</time></trkpt><trkpt lat="42.2929056" lon="12.7216628"><ele>661.0</ele><time>2026-04-25T11:35:10.2Z</time></trkpt><trkpt lat="42.2929344" lon="12.721739"><ele>661.0</ele><time>2026-04-25T11:35:16.235Z</time></trkpt><trkpt lat="42.2929573" lon="12.7218195"><ele>661.0</ele><time>2026-04-25T11:35:21.223Z</time></trkpt><trkpt lat="42.2929731" lon="12.7219059"><ele>661.0</ele><time>2026-04-25T11:35:26.213Z</time></trkpt><trkpt lat="42.2929736" lon="12.7220024"><ele>661.0</ele><time>2026-04-25T11:35:32.234Z</time></trkpt><trkpt lat="42.2929792" lon="12.722089"><ele>661.8571428571429</ele><time>2026-04-25T11:35:39.223Z</time></trkpt><trkpt lat="42.2930045" lon="12.7221815"><ele>662.7142857142858</ele><time>2026-04-25T11:35:45.149Z</time></trkpt><trkpt lat="42.2930379" lon="12.7222544"><ele>663.5714285714287</ele><time>2026-04-25T11:35:50.222Z</time></trkpt><trkpt lat="42.2930786" lon="12.722341"><ele>664.4285714285714</ele><time>2026-04-25T11:35:56.195Z</time></trkpt><trkpt lat="42.2931274" lon="12.7224165"><ele>665.2857142857143</ele><time>2026-04-25T11:36:01.235Z</time></trkpt><trkpt lat="42.293175" lon="12.722474"><ele>666.1428571428572</ele><time>2026-04-25T11:36:05.223Z</time></trkpt><trkpt lat="42.2932322" lon="12.7225216"><ele>667.0</ele><time>2026-04-25T11:36:10.223Z</time></trkpt><trkpt lat="42.2933008" lon="12.7225116"><ele>667.0000000000001</ele><time>2026-04-25T11:36:15.222Z</time></trkpt><trkpt lat="42.2933408" lon="12.7224442"><ele>667.0</ele><time>2026-04-25T11:36:20.228Z</time></trkpt><trkpt lat="42.2933713" lon="12.7223675"><ele>667.0</ele><time>2026-04-25T11:36:25.222Z</time></trkpt><trkpt lat="42.2934239" lon="12.7222895"><ele>667.0</ele><time>2026-04-25T11:36:31.222Z</time></trkpt><trkpt lat="42.2934663" lon="12.7222243"><ele>667.0</ele><time>2026-04-25T11:36:36.222Z</time></trkpt><trkpt lat="42.2935176" lon="12.7221558"><ele>667.0000000000001</ele><time>2026-04-25T11:36:42.235Z</time></trkpt><trkpt lat="42.2935631" lon="12.7220926"><ele>667.0</ele><time>2026-04-25T11:36:48.222Z</time></trkpt><trkpt lat="42.2936156" lon="12.7220368"><ele>667.0000000000001</ele><time>2026-04-25T11:36:54.222Z</time></trkpt><trkpt lat="42.2936655" lon="12.7219725"><ele>667.0</ele><time>2026-04-25T11:37:01.222Z</time></trkpt><trkpt lat="42.2937275" lon="12.7219436"><ele>667.0</ele><time>2026-04-25T11:37:08.222Z</time></trkpt><trkpt lat="42.2937928" lon="12.7218937"><ele>667.0</ele><time>2026-04-25T11:37:15.222Z</time></trkpt><trkpt lat="42.2938561" lon="12.7218825"><ele>667.0</ele><time>2026-04-25T11:37:20.222Z</time></trkpt><trkpt lat="42.2939215" lon="12.7218764"><ele>667.0000000000001</ele><time>2026-04-25T11:37:25.221Z</time></trkpt><trkpt lat="42.2939893" lon="12.7218838"><ele>667.0</ele><time>2026-04-25T11:37:31.222Z</time></trkpt><trkpt lat="42.2940476" lon="12.7219277"><ele>667.2857142857143</ele><time>2026-04-25T11:37:47.222Z</time></trkpt><trkpt lat="42.2941128" lon="12.7219446"><ele>667.5714285714286</ele><time>2026-04-25T11:37:52.235Z</time></trkpt><trkpt lat="42.2941742" lon="12.7219706"><ele>667.8571428571429</ele><time>2026-04-25T11:37:56.221Z</time></trkpt><trkpt lat="42.2942453" lon="12.721997"><ele>668.1428571428571</ele><time>2026-04-25T11:38:07.235Z</time></trkpt><trkpt lat="42.294315" lon="12.722028"><ele>668.4285714285714</ele><time>2026-04-25T11:38:12.077Z</time></trkpt><trkpt lat="42.2943807" lon="12.7220419"><ele>668.7142857142858</ele><time>2026-04-25T11:38:17.235Z</time></trkpt><trkpt lat="42.2944552" lon="12.7220409"><ele>669.0</ele><time>2026-04-25T11:38:24.219Z</time></trkpt><trkpt lat="42.2945203" lon="12.7220313"><ele>669.0</ele><time>2026-04-25T11:38:28.221Z</time></trkpt><trkpt lat="42.294585" lon="12.7220316"><ele>669.0</ele><time>2026-04-25T11:38:36.221Z</time></trkpt><trkpt lat="42.2946605" lon="12.7220241"><ele>669.0</ele><time>2026-04-25T11:38:42.235Z</time></trkpt><trkpt lat="42.2947263" lon="12.7220051"><ele>669.0</ele><time>2026-04-25T11:38:47.222Z</time></trkpt><trkpt lat="42.2947944" lon="12.7219976"><ele>669.0</ele><time>2026-04-25T11:38:52.221Z</time></trkpt><trkpt lat="42.2948574" lon="12.7219981"><ele>669.0</ele><time>2026-04-25T11:38:57.222Z</time></trkpt><trkpt lat="42.2949231" lon="12.7219937"><ele>669.0</ele><time>2026-04-25T11:39:03.18Z</time></trkpt><trkpt lat="42.2949935" lon="12.7219897"><ele>668.8571428571429</ele><time>2026-04-25T11:39:08.157Z</time></trkpt><trkpt lat="42.2950528" lon="12.7219261"><ele>668.7142857142857</ele><time>2026-04-25T11:39:14.227Z</time></trkpt><trkpt lat="42.2951043" lon="12.7218536"><ele>668.5714285714286</ele><time>2026-04-25T11:39:19.22Z</time></trkpt><trkpt lat="42.2951528" lon="12.7217846"><ele>668.4285714285714</ele><time>2026-04-25T11:39:24.22Z</time></trkpt><trkpt lat="42.2952035" lon="12.7217322"><ele>668.2857142857143</ele><time>2026-04-25T11:39:29.22Z</time></trkpt><trkpt lat="42.2952566" lon="12.7216833"><ele>668.1428571428571</ele><time>2026-04-25T11:39:34.22Z</time></trkpt><trkpt lat="42.2953105" lon="12.7216329"><ele>668.0</ele><time>2026-04-25T11:39:40.232Z</time></trkpt><trkpt lat="42.2953655" lon="12.7215877"><ele>666.4285714285714</ele><time>2026-04-25T11:39:45.195Z</time></trkpt><trkpt lat="42.2954258" lon="12.721556"><ele>664.8571428571429</ele><time>2026-04-25T11:39:51.253Z</time></trkpt><trkpt lat="42.295496" lon="12.7215239"><ele>663.2857142857142</ele><time>2026-04-25T11:39:57.221Z</time></trkpt><trkpt lat="42.2955626" lon="12.7214677"><ele>661.7142857142858</ele><time>2026-04-25T11:40:02.221Z</time></trkpt><trkpt lat="42.2956132" lon="12.7214088"><ele>660.1428571428572</ele><time>2026-04-25T11:40:07.242Z</time></trkpt><trkpt lat="42.295663" lon="12.7213443"><ele>658.5714285714286</ele><time>2026-04-25T11:40:12.22Z</time></trkpt><trkpt lat="42.2957083" lon="12.7212819"><ele>657.0</ele><time>2026-04-25T11:40:17.22Z</time></trkpt><trkpt lat="42.295756" lon="12.7212125"><ele>657.0</ele><time>2026-04-25T11:40:23.14Z</time></trkpt><trkpt lat="42.2958177" lon="12.7211589"><ele>657.0</ele><time>2026-04-25T11:40:29.23Z</time></trkpt><trkpt lat="42.2958774" lon="12.7211273"><ele>657.0</ele><time>2026-04-25T11:40:34.221Z</time></trkpt><trkpt lat="42.2959485" lon="12.7211102"><ele>657.0</ele><time>2026-04-25T11:40:41.22Z</time></trkpt><trkpt lat="42.2960129" lon="12.7211082"><ele>657.0</ele><time>2026-04-25T11:40:46.22Z</time></trkpt><trkpt lat="42.2960818" lon="12.7211299"><ele>657.0</ele><time>2026-04-25T11:40:52.217Z</time></trkpt><trkpt lat="42.2961464" lon="12.7211774"><ele>657.0</ele><time>2026-04-25T11:40:57.22Z</time></trkpt><trkpt lat="42.2962089" lon="12.7212121"><ele>657.0</ele><time>2026-04-25T11:41:02.22Z</time></trkpt><trkpt lat="42.2962682" lon="12.7212534"><ele>657.0</ele><time>2026-04-25T11:41:07.036Z</time></trkpt><trkpt lat="42.2963249" lon="12.7213137"><ele>657.0</ele><time>2026-04-25T11:41:12.216Z</time></trkpt><trkpt lat="42.2963735" lon="12.72139"><ele>657.0</ele><time>2026-04-25T11:41:17.236Z</time></trkpt><trkpt lat="42.2964081" lon="12.7214627"><ele>657.0</ele><time>2026-04-25T11:41:22.22Z</time></trkpt><trkpt lat="42.2964507" lon="12.7215436"><ele>657.0</ele><time>2026-04-25T11:41:28.22Z</time></trkpt><trkpt lat="42.2965186" lon="12.7215526"><ele>657.0</ele><time>2026-04-25T11:41:35.22Z</time></trkpt><trkpt lat="42.2965698" lon="12.721491"><ele>657.0</ele><time>2026-04-25T11:41:41.22Z</time></trkpt><trkpt lat="42.2966105" lon="12.7214119"><ele>657.0</ele><time>2026-04-25T11:41:47.177Z</time></trkpt><trkpt lat="42.2966578" lon="12.7213423"><ele>657.0</ele><time>2026-04-25T11:41:53.213Z</time></trkpt><trkpt lat="42.2967114" lon="12.7212913"><ele>657.0</ele><time>2026-04-25T11:41:59.219Z</time></trkpt><trkpt lat="42.2967705" lon="12.7212285"><ele>657.0</ele><time>2026-04-25T11:42:05.22Z</time></trkpt><trkpt lat="42.2968303" lon="12.7211886"><ele>657.0</ele><time>2026-04-25T11:42:11.219Z</time></trkpt><trkpt lat="42.2968948" lon="12.7211461"><ele>657.0</ele><time>2026-04-25T11:42:17.236Z</time></trkpt><trkpt lat="42.2969517" lon="12.7211017"><ele>657.0</ele><time>2026-04-25T11:42:23.219Z</time></trkpt><trkpt lat="42.2970161" lon="12.721068"><ele>657.0</ele><time>2026-04-25T11:42:29.219Z</time></trkpt><trkpt lat="42.2970839" lon="12.7210559"><ele>657.0</ele><time>2026-04-25T11:42:34.219Z</time></trkpt><trkpt lat="42.2971468" lon="12.7210448"><ele>657.0</ele><time>2026-04-25T11:42:39.219Z</time></trkpt><trkpt lat="42.297223" lon="12.7210455"><ele>657.0</ele><time>2026-04-25T11:42:45.235Z</time></trkpt><trkpt lat="42.2972877" lon="12.7210604"><ele>657.0</ele><time>2026-04-25T11:42:50.219Z</time></trkpt><trkpt lat="42.2973527" lon="12.7210704"><ele>657.0</ele><time>2026-04-25T11:42:55.219Z</time></trkpt><trkpt lat="42.29741" lon="12.7210142"><ele>656.1428571428571</ele><time>2026-04-25T11:43:01.219Z</time></trkpt><trkpt lat="42.2974274" lon="12.7209154"><ele>655.2857142857143</ele><time>2026-04-25T11:43:07.199Z</time></trkpt><trkpt lat="42.297449" lon="12.7208201"><ele>654.4285714285714</ele><time>2026-04-25T11:43:13.133Z</time></trkpt><trkpt lat="42.2974782" lon="12.7207408"><ele>653.5714285714286</ele><time>2026-04-25T11:43:18.219Z</time></trkpt><trkpt lat="42.297521" lon="12.7206625"><ele>652.7142857142858</ele><time>2026-04-25T11:43:24.219Z</time></trkpt><trkpt lat="42.2975688" lon="12.7206032"><ele>651.8571428571429</ele><time>2026-04-25T11:43:29.218Z</time></trkpt><trkpt lat="42.2976338" lon="12.7205552"><ele>651.0</ele><time>2026-04-25T11:43:35.218Z</time></trkpt><trkpt lat="42.2976971" lon="12.7205032"><ele>651.0</ele><time>2026-04-25T11:43:41.219Z</time></trkpt><trkpt lat="42.2977587" lon="12.7204601"><ele>651.0</ele><time>2026-04-25T11:43:47.235Z</time></trkpt><trkpt lat="42.2978252" lon="12.7204095"><ele>651.0</ele><time>2026-04-25T11:43:53.214Z</time></trkpt><trkpt lat="42.2978803" lon="12.7203439"><ele>651.0</ele><time>2026-04-25T11:43:59.242Z</time></trkpt><trkpt lat="42.2979276" lon="12.7202753"><ele>651.0</ele><time>2026-04-25T11:44:05.218Z</time></trkpt><trkpt lat="42.2979826" lon="12.7202191"><ele>651.0</ele><time>2026-04-25T11:44:12.218Z</time></trkpt><trkpt lat="42.2980557" lon="12.7202436"><ele>651.0</ele><time>2026-04-25T11:44:19.236Z</time></trkpt><trkpt lat="42.2981263" lon="12.7202804"><ele>652.7142857142857</ele><time>2026-04-25T11:44:25.212Z</time></trkpt><trkpt lat="42.2981839" lon="12.7203182"><ele>654.4285714285714</ele><time>2026-04-25T11:44:31.219Z</time></trkpt><trkpt lat="42.2982339" lon="12.7203763"><ele>656.1428571428571</ele><time>2026-04-25T11:44:36.177Z</time></trkpt><trkpt lat="42.2982906" lon="12.7204163"><ele>657.8571428571429</ele><time>2026-04-25T11:44:41.218Z</time></trkpt><trkpt lat="42.2983631" lon="12.7204336"><ele>659.5714285714286</ele><time>2026-04-25T11:44:47.218Z</time></trkpt><trkpt lat="42.2984301" lon="12.7204181"><ele>661.2857142857142</ele><time>2026-04-25T11:44:52.218Z</time></trkpt><trkpt lat="42.298492" lon="12.7203982"><ele>663.0</ele><time>2026-04-25T11:44:57.211Z</time></trkpt><trkpt lat="42.2985621" lon="12.7203774"><ele>662.9999999999999</ele><time>2026-04-25T11:45:03.232Z</time></trkpt><trkpt lat="42.2986412" lon="12.7203787"><ele>663.0</ele><time>2026-04-25T11:45:19.217Z</time></trkpt><trkpt lat="42.29871" lon="12.720396"><ele>663.0</ele><time>2026-04-25T11:45:24.21Z</time></trkpt><trkpt lat="42.2987729" lon="12.7204128"><ele>663.0</ele><time>2026-04-25T11:45:28.233Z</time></trkpt><trkpt lat="42.2988375" lon="12.7204184"><ele>663.0</ele><time>2026-04-25T11:45:35.134Z</time></trkpt><trkpt lat="42.2989007" lon="12.7204261"><ele>662.9999999999999</ele><time>2026-04-25T11:45:40.217Z</time></trkpt><trkpt lat="42.2989756" lon="12.7204224"><ele>663.0</ele><time>2026-04-25T11:45:46.217Z</time></trkpt><trkpt lat="42.2990379" lon="12.7204004"><ele>662.5714285714286</ele><time>2026-04-25T11:45:51.226Z</time></trkpt><trkpt lat="42.299101" lon="12.7204002"><ele>662.1428571428571</ele><time>2026-04-25T11:45:56.238Z</time></trkpt><trkpt lat="42.2991652" lon="12.7204353"><ele>661.7142857142858</ele><time>2026-04-25T11:46:02.218Z</time></trkpt><trkpt lat="42.2992353" lon="12.7204704"><ele>661.2857142857142</ele><time>2026-04-25T11:46:08.218Z</time></trkpt><trkpt lat="42.2993065" lon="12.7205002"><ele>660.8571428571429</ele><time>2026-04-25T11:46:13.218Z</time></trkpt><trkpt lat="42.2993741" lon="12.7205329"><ele>660.4285714285714</ele><time>2026-04-25T11:46:18.235Z</time></trkpt><trkpt lat="42.2994429" lon="12.7205608"><ele>660.0</ele><time>2026-04-25T11:46:23.217Z</time></trkpt><trkpt lat="42.2995077" lon="12.7205883"><ele>660.0000000000001</ele><time>2026-04-25T11:46:28.217Z</time></trkpt><trkpt lat="42.2995717" lon="12.7206144"><ele>660.0</ele><time>2026-04-25T11:46:33.22Z</time></trkpt><trkpt lat="42.2996353" lon="12.7206435"><ele>660.0</ele><time>2026-04-25T11:46:38.217Z</time></trkpt><trkpt lat="42.2996986" lon="12.7206698"><ele>660.0</ele><time>2026-04-25T11:46:43.235Z</time></trkpt><trkpt lat="42.2997665" lon="12.7206969"><ele>660.0</ele><time>2026-04-25T11:46:48.216Z</time></trkpt><trkpt lat="42.2998335" lon="12.7207369"><ele>660.0000000000001</ele><time>2026-04-25T11:46:54.217Z</time></trkpt><trkpt lat="42.2998702" lon="12.7208114"><ele>660.0</ele><time>2026-04-25T11:46:59.217Z</time></trkpt><trkpt lat="42.2998683" lon="12.7209094"><ele>659.4285714285714</ele><time>2026-04-25T11:47:05.197Z</time></trkpt><trkpt lat="42.299838" lon="12.720987"><ele>658.8571428571429</ele><time>2026-04-25T11:47:12.216Z</time></trkpt><trkpt lat="42.2998335" lon="12.7210737"><ele>658.2857142857142</ele><time>2026-04-25T11:47:18.217Z</time></trkpt><trkpt lat="42.2998335" lon="12.7211654"><ele>657.7142857142858</ele><time>2026-04-25T11:47:24.134Z</time></trkpt><trkpt lat="42.2998283" lon="12.7212515"><ele>657.1428571428571</ele><time>2026-04-25T11:47:29.219Z</time></trkpt><trkpt lat="42.2998714" lon="12.7213154"><ele>656.5714285714286</ele><time>2026-04-25T11:47:34.216Z</time></trkpt><trkpt lat="42.2999318" lon="12.7213488"><ele>656.0</ele><time>2026-04-25T11:47:39.217Z</time></trkpt><trkpt lat="42.2999977" lon="12.7213385"><ele>655.9999999999999</ele><time>2026-04-25T11:47:46.217Z</time></trkpt><trkpt lat="42.300066" lon="12.7213092"><ele>656.0</ele><time>2026-04-25T11:47:53.119Z</time></trkpt><trkpt lat="42.3001303" lon="12.7212843"><ele>656.0</ele><time>2026-04-25T11:47:57.216Z</time></trkpt><trkpt lat="42.3001988" lon="12.7212533"><ele>656.0</ele><time>2026-04-25T11:48:02.237Z</time></trkpt><trkpt lat="42.3002612" lon="12.7212309"><ele>656.0</ele><time>2026-04-25T11:48:08.216Z</time></trkpt><trkpt lat="42.3003272" lon="12.7212012"><ele>655.9999999999999</ele><time>2026-04-25T11:48:14.216Z</time></trkpt><trkpt lat="42.300388" lon="12.7211421"><ele>656.0</ele><time>2026-04-25T11:48:26.131Z</time></trkpt><trkpt lat="42.3004551" lon="12.7211333"><ele>655.9999999999999</ele><time>2026-04-25T11:48:31.234Z</time></trkpt><trkpt lat="42.3005059" lon="12.7210809"><ele>656.0</ele><time>2026-04-25T11:48:38.216Z</time></trkpt><trkpt lat="42.3005773" lon="12.7210804"><ele>656.0</ele><time>2026-04-25T11:48:43.218Z</time></trkpt><trkpt lat="42.300643" lon="12.7210738"><ele>656.0</ele><time>2026-04-25T11:48:48.131Z</time></trkpt><trkpt lat="42.3007075" lon="12.7210599"><ele>656.0</ele><time>2026-04-25T11:48:53.215Z</time></trkpt><trkpt lat="42.3007714" lon="12.7210423"><ele>655.9999999999999</ele><time>2026-04-25T11:48:59.235Z</time></trkpt><trkpt lat="42.3008369" lon="12.7210305"><ele>656.0</ele><time>2026-04-25T11:49:05.191Z</time></trkpt><trkpt lat="42.3009107" lon="12.7210181"><ele>653.4285714285713</ele><time>2026-04-25T11:49:11.215Z</time></trkpt><trkpt lat="42.3009785" lon="12.721001"><ele>650.8571428571429</ele><time>2026-04-25T11:49:17.23Z</time></trkpt><trkpt lat="42.3010463" lon="12.720992"><ele>648.2857142857142</ele><time>2026-04-25T11:49:23.215Z</time></trkpt><trkpt lat="42.301117" lon="12.7209922"><ele>645.7142857142857</ele><time>2026-04-25T11:49:28.134Z</time></trkpt><trkpt lat="42.3011805" lon="12.7209814"><ele>643.1428571428571</ele><time>2026-04-25T11:49:32.217Z</time></trkpt><trkpt lat="42.301248" lon="12.7209676"><ele>640.5714285714286</ele><time>2026-04-25T11:49:37.215Z</time></trkpt><trkpt lat="42.3013211" lon="12.7209616"><ele>638.0</ele><time>2026-04-25T11:49:42.216Z</time></trkpt><trkpt lat="42.3013937" lon="12.7209622"><ele>638.1428571428572</ele><time>2026-04-25T11:49:47.215Z</time></trkpt><trkpt lat="42.3014577" lon="12.7209632"><ele>638.2857142857142</ele><time>2026-04-25T11:49:52.215Z</time></trkpt><trkpt lat="42.3015277" lon="12.7209791"><ele>638.4285714285714</ele><time>2026-04-25T11:49:58.157Z</time></trkpt><trkpt lat="42.3015952" lon="12.7209844"><ele>638.5714285714287</ele><time>2026-04-25T11:50:03.116Z</time></trkpt><trkpt lat="42.3016661" lon="12.7209917"><ele>638.7142857142858</ele><time>2026-04-25T11:50:09.215Z</time></trkpt><trkpt lat="42.3017345" lon="12.7210127"><ele>638.8571428571429</ele><time>2026-04-25T11:50:14.215Z</time></trkpt><trkpt lat="42.3017982" lon="12.7210179"><ele>639.0</ele><time>2026-04-25T11:50:19.216Z</time></trkpt><trkpt lat="42.3018709" lon="12.7210086"><ele>639.0000000000001</ele><time>2026-04-25T11:50:26.215Z</time></trkpt><trkpt lat="42.3019412" lon="12.7210054"><ele>639.0</ele><time>2026-04-25T11:50:33.215Z</time></trkpt><trkpt lat="42.3020056" lon="12.7209864"><ele>639.0</ele><time>2026-04-25T11:50:38.214Z</time></trkpt><trkpt lat="42.3020747" lon="12.7209629"><ele>639.0</ele><time>2026-04-25T11:50:43.214Z</time></trkpt><trkpt lat="42.3021384" lon="12.7209226"><ele>639.0</ele><time>2026-04-25T11:50:49.215Z</time></trkpt><trkpt lat="42.3021939" lon="12.7208757"><ele>639.0000000000001</ele><time>2026-04-25T11:50:56.214Z</time></trkpt><trkpt lat="42.302258" lon="12.7208429"><ele>639.0</ele><time>2026-04-25T11:51:03.116Z</time></trkpt><trkpt lat="42.3023294" lon="12.7208268"><ele>642.0</ele><time>2026-04-25T11:51:09.214Z</time></trkpt><trkpt lat="42.3023951" lon="12.7207841"><ele>642.0</ele><time>2026-04-25T11:51:15.214Z</time></trkpt><trkpt lat="42.3024626" lon="12.7207528"><ele>642.0</ele><time>2026-04-25T11:51:21.176Z</time></trkpt><trkpt lat="42.3025357" lon="12.7207367"><ele>642.0</ele><time>2026-04-25T11:51:27.131Z</time></trkpt><trkpt lat="42.3025961" lon="12.7206917"><ele>642.0</ele><time>2026-04-25T11:51:33.214Z</time></trkpt><trkpt lat="42.3026314" lon="12.7206058"><ele>642.0</ele><time>2026-04-25T11:51:40.215Z</time></trkpt><trkpt lat="42.3026634" lon="12.7205275"><ele>642.0</ele><time>2026-04-25T11:51:46.179Z</time></trkpt></trkseg></trk></gpx>